﻿<?xml version="1.0" encoding="utf-8"?><gpx creator="Garmin Desktop App" version="1.1" xsi:schemaLocation="http://www.topografix.com/GPX/1/1 http://www.topografix.com/GPX/1/1/gpx.xsd http://www.garmin.com/xmlschemas/WaypointExtension/v1 http://www8.garmin.com/xmlschemas/WaypointExtensionv1.xsd http://www.garmin.com/xmlschemas/TrackPointExtension/v1 http://www.garmin.com/xmlschemas/TrackPointExtensionv1.xsd http://www.garmin.com/xmlschemas/GpxExtensions/v3 http://www8.garmin.com/xmlschemas/GpxExtensionsv3.xsd http://www.garmin.com/xmlschemas/ActivityExtension/v1 http://www8.garmin.com/xmlschemas/ActivityExtensionv1.xsd http://www.garmin.com/xmlschemas/AdventuresExtensions/v1 http://www8.garmin.com/xmlschemas/AdventuresExtensionv1.xsd http://www.garmin.com/xmlschemas/PressureExtension/v1 http://www.garmin.com/xmlschemas/PressureExtensionv1.xsd http://www.garmin.com/xmlschemas/TripExtensions/v1 http://www.garmin.com/xmlschemas/TripExtensionsv1.xsd http://www.garmin.com/xmlschemas/TripMetaDataExtensions/v1 http://www.garmin.com/xmlschemas/TripMetaDataExtensionsv1.xsd http://www.garmin.com/xmlschemas/ViaPointTransportationModeExtensions/v1 http://www.garmin.com/xmlschemas/ViaPointTransportationModeExtensionsv1.xsd http://www.garmin.com/xmlschemas/CreationTimeExtension/v1 http://www.garmin.com/xmlschemas/CreationTimeExtensionsv1.xsd http://www.garmin.com/xmlschemas/AccelerationExtension/v1 http://www.garmin.com/xmlschemas/AccelerationExtensionv1.xsd http://www.garmin.com/xmlschemas/PowerExtension/v1 http://www.garmin.com/xmlschemas/PowerExtensionv1.xsd http://www.garmin.com/xmlschemas/VideoExtension/v1 http://www.garmin.com/xmlschemas/VideoExtensionv1.xsd" xmlns="http://www.topografix.com/GPX/1/1" xmlns:xsi="http://www.w3.org/2001/XMLSchema-instance" xmlns:wptx1="http://www.garmin.com/xmlschemas/WaypointExtension/v1" xmlns:gpxtrx="http://www.garmin.com/xmlschemas/GpxExtensions/v3" xmlns:gpxtpx="http://www.garmin.com/xmlschemas/TrackPointExtension/v1" xmlns:gpxx="http://www.garmin.com/xmlschemas/GpxExtensions/v3" xmlns:trp="http://www.garmin.com/xmlschemas/TripExtensions/v1" xmlns:adv="http://www.garmin.com/xmlschemas/AdventuresExtensions/v1" xmlns:prs="http://www.garmin.com/xmlschemas/PressureExtension/v1" xmlns:tmd="http://www.garmin.com/xmlschemas/TripMetaDataExtensions/v1" xmlns:vptm="http://www.garmin.com/xmlschemas/ViaPointTransportationModeExtensions/v1" xmlns:ctx="http://www.garmin.com/xmlschemas/CreationTimeExtension/v1" xmlns:gpxacc="http://www.garmin.com/xmlschemas/AccelerationExtension/v1" xmlns:gpxpx="http://www.garmin.com/xmlschemas/PowerExtension/v1" xmlns:vidx1="http://www.garmin.com/xmlschemas/VideoExtension/v1">

  <metadata>
    <link href="http://www.garmin.com">
      <text>Garmin International</text>
    </link>
    <time>2021-08-04T13:54:03Z</time>
    <bounds maxlat="50.312254009768367" maxlon="6.529714548960328" minlat="50.201875241473317" minlon="6.416812492534518" />
  </metadata>

  <trk>
    <name>isi hof na prum  20 km g</name>
    <extensions>
      <gpxx:TrackExtension>
        <gpxx:DisplayColor>Magenta</gpxx:DisplayColor>
      </gpxx:TrackExtension>
    </extensions>
    <trkseg>
      <trkpt lat="50.201875241473317" lon="6.416812492534518">
        <ele>420.36000000000001</ele>
        <time>2017-06-06T10:02:54Z</time>
      </trkpt>
      <trkpt lat="50.202022092416883" lon="6.417081970721483" />
      <trkpt lat="50.202330630272627" lon="6.417100410908461" />
      <trkpt lat="50.202497346326709" lon="6.417522858828306">
        <ele>422.43000000000001</ele>
        <time>2017-06-06T10:03:09Z</time>
      </trkpt>
      <trkpt lat="50.202501704916358" lon="6.417539790272713">
        <ele>422.66000000000003</ele>
        <time>2017-06-06T10:03:10Z</time>
      </trkpt>
      <trkpt lat="50.202588625252247" lon="6.417759312316775">
        <ele>424.37</ele>
        <time>2017-06-06T10:03:24Z</time>
      </trkpt>
      <trkpt lat="50.202725501731038" lon="6.418014289811254">
        <ele>425.75</ele>
        <time>2017-06-06T10:03:41Z</time>
      </trkpt>
      <trkpt lat="50.202867742627859" lon="6.418249821290374">
        <ele>427.25999999999999</ele>
        <time>2017-06-06T10:03:57Z</time>
      </trkpt>
      <trkpt lat="50.202926080673933" lon="6.418390888720751">
        <ele>427.75999999999999</ele>
        <time>2017-06-06T10:04:07Z</time>
      </trkpt>
      <trkpt lat="50.20295575261116" lon="6.418572273105383">
        <ele>426.83999999999997</ele>
        <time>2017-06-06T10:04:17Z</time>
      </trkpt>
      <trkpt lat="50.20300704985857" lon="6.418897742405534">
        <ele>423.98000000000002</ele>
        <time>2017-06-06T10:04:36Z</time>
      </trkpt>
      <trkpt lat="50.203034207224846" lon="6.419102177023888">
        <ele>421.95999999999998</ele>
        <time>2017-06-06T10:04:50Z</time>
      </trkpt>
      <trkpt lat="50.203072177246213" lon="6.419176608324051">
        <ele>421.98000000000002</ele>
        <time>2017-06-06T10:04:52Z</time>
      </trkpt>
      <trkpt lat="50.203120121732354" lon="6.419516075402498">
        <ele>418.63</ele>
        <time>2017-06-06T10:05:10Z</time>
      </trkpt>
      <trkpt lat="50.203148620203137" lon="6.419631829485297">
        <ele>417.36000000000001</ele>
        <time>2017-06-06T10:05:17Z</time>
      </trkpt>
      <trkpt lat="50.203155325725675" lon="6.419813800603151">
        <ele>417.07999999999998</ele>
        <time>2017-06-06T10:05:30Z</time>
      </trkpt>
      <trkpt lat="50.203155744820833" lon="6.419830396771431">
        <ele>416.77999999999997</ele>
        <time>2017-06-06T10:05:33Z</time>
      </trkpt>
      <trkpt lat="50.203154906630516" lon="6.419938607141376">
        <ele>416.38999999999999</ele>
        <time>2017-06-06T10:05:40Z</time>
      </trkpt>
      <trkpt lat="50.203112158924341" lon="6.419998621568084">
        <ele>417.01999999999998</ele>
        <time>2017-06-06T10:05:45Z</time>
      </trkpt>
      <trkpt lat="50.202807476744056" lon="6.420200373977423">
        <ele>416.76999999999998</ele>
        <time>2017-06-06T10:06:11Z</time>
      </trkpt>
      <trkpt lat="50.202690465375781" lon="6.420428194105625">
        <ele>417.07999999999998</ele>
        <time>2017-06-06T10:06:27Z</time>
      </trkpt>
      <trkpt lat="50.202712845057249" lon="6.420729607343674">
        <ele>417.56999999999999</ele>
        <time>2017-06-06T10:06:43Z</time>
      </trkpt>
      <trkpt lat="50.202782498672605" lon="6.421012580394745">
        <ele>417.49000000000001</ele>
        <time>2017-06-06T10:06:58Z</time>
      </trkpt>
      <trkpt lat="50.202896324917674" lon="6.421291194856167">
        <ele>418.10000000000002</ele>
        <time>2017-06-06T10:07:12Z</time>
      </trkpt>
      <trkpt lat="50.20298408344388" lon="6.421576095744968">
        <ele>417.43000000000001</ele>
        <time>2017-06-06T10:07:29Z</time>
      </trkpt>
      <trkpt lat="50.203066477552056" lon="6.4219094440341">
        <ele>417.23000000000002</ele>
        <time>2017-06-06T10:07:46Z</time>
      </trkpt>
      <trkpt lat="50.203083828091621" lon="6.421965770423412">
        <ele>417.24000000000001</ele>
        <time>2017-06-06T10:07:49Z</time>
      </trkpt>
      <trkpt lat="50.203134203329682" lon="6.4221684448421">
        <ele>417.07999999999998</ele>
        <time>2017-06-06T10:08:00Z</time>
      </trkpt>
      <trkpt lat="50.203211149200797" lon="6.422462482005358">
        <ele>418.17000000000002</ele>
        <time>2017-06-06T10:08:15Z</time>
      </trkpt>
      <trkpt lat="50.203303266316652" lon="6.422735648229718">
        <ele>417.79000000000002</ele>
        <time>2017-06-06T10:08:31Z</time>
      </trkpt>
      <trkpt lat="50.203402508050203" lon="6.423044102266431">
        <ele>417.61000000000001</ele>
        <time>2017-06-06T10:08:48Z</time>
      </trkpt>
      <trkpt lat="50.203531170263886" lon="6.423463951796293">
        <ele>418.36000000000001</ele>
        <time>2017-06-06T10:09:09Z</time>
      </trkpt>
      <trkpt lat="50.203584898263216" lon="6.423551877960563">
        <ele>419.16000000000003</ele>
        <time>2017-06-06T10:09:23Z</time>
      </trkpt>
      <trkpt lat="50.203619431704283" lon="6.42359571531415">
        <ele>418.36000000000001</ele>
        <time>2017-06-06T10:09:42Z</time>
      </trkpt>
      <trkpt lat="50.203834930434823" lon="6.423787828534842">
        <ele>417.91000000000003</ele>
        <time>2017-06-06T10:10:02Z</time>
      </trkpt>
      <trkpt lat="50.204036431387067" lon="6.42418647184968">
        <ele>418.83999999999997</ele>
        <time>2017-06-06T10:10:28Z</time>
      </trkpt>
      <trkpt lat="50.204202812165022" lon="6.42451923340559">
        <ele>417.75999999999999</ele>
        <time>2017-06-06T10:10:49Z</time>
      </trkpt>
      <trkpt lat="50.204227119684219" lon="6.424627108499408">
        <ele>417.45999999999998</ele>
        <time>2017-06-06T10:10:53Z</time>
      </trkpt>
      <trkpt lat="50.204333821311593" lon="6.42469952814281">
        <ele>416.91000000000003</ele>
        <time>2017-06-06T10:10:58Z</time>
      </trkpt>
      <trkpt lat="50.204477403312922" lon="6.424907147884369">
        <ele>417.79000000000002</ele>
        <time>2017-06-06T10:11:18Z</time>
      </trkpt>
      <trkpt lat="50.204694410786033" lon="6.425173692405224">
        <ele>417.68000000000001</ele>
        <time>2017-06-06T10:11:34Z</time>
      </trkpt>
      <trkpt lat="50.204826761037111" lon="6.425355244427919">
        <ele>418.13</ele>
        <time>2017-06-06T10:11:53Z</time>
      </trkpt>
      <trkpt lat="50.205047708004713" lon="6.425651712343097">
        <ele>417.99000000000001</ele>
        <time>2017-06-06T10:12:14Z</time>
      </trkpt>
      <trkpt lat="50.205305954441428" lon="6.425880203023553">
        <ele>418.37</ele>
        <time>2017-06-06T10:12:36Z</time>
      </trkpt>
      <trkpt lat="50.205536708235741" lon="6.426048092544079">
        <ele>419.70999999999998</ele>
        <time>2017-06-06T10:12:55Z</time>
      </trkpt>
      <trkpt lat="50.20578833296895" lon="6.426181867718697">
        <ele>419.99000000000001</ele>
        <time>2017-06-06T10:13:15Z</time>
      </trkpt>
      <trkpt lat="50.205993270501494" lon="6.426289658993483">
        <ele>420.19</ele>
        <time>2017-06-06T10:13:32Z</time>
      </trkpt>
      <trkpt lat="50.206044064834714" lon="6.426309021189809">
        <ele>420.30000000000001</ele>
        <time>2017-06-06T10:13:36Z</time>
      </trkpt>
      <trkpt lat="50.206289067864418" lon="6.426438521593809">
        <ele>420.82999999999998</ele>
        <time>2017-06-06T10:13:55Z</time>
      </trkpt>
      <trkpt lat="50.20631312392652" lon="6.426437934860587">
        <ele>420.42000000000002</ele>
        <time>2017-06-06T10:13:59Z</time>
      </trkpt>
      <trkpt lat="50.206364588811994" lon="6.426470959559083">
        <ele>420.30000000000001</ele>
        <time>2017-06-06T10:14:03Z</time>
      </trkpt>
      <trkpt lat="50.206577908247709" lon="6.426619067788124">
        <ele>420.22000000000003</ele>
        <time>2017-06-06T10:14:21Z</time>
      </trkpt>
      <trkpt lat="50.206768596544862" lon="6.426785197108984">
        <ele>421.32999999999998</ele>
        <time>2017-06-06T10:14:38Z</time>
      </trkpt>
      <trkpt lat="50.206990716978908" lon="6.42704981379211">
        <ele>420.17000000000002</ele>
        <time>2017-06-06T10:14:58Z</time>
      </trkpt>
      <trkpt lat="50.207168580964208" lon="6.427283082157373">
        <ele>420.30000000000001</ele>
        <time>2017-06-06T10:15:15Z</time>
      </trkpt>
      <trkpt lat="50.207317946478724" lon="6.427486091852188">
        <ele>420.36000000000001</ele>
        <time>2017-06-06T10:15:31Z</time>
      </trkpt>
      <trkpt lat="50.207356167957187" lon="6.427568569779396">
        <ele>420.60000000000002</ele>
        <time>2017-06-06T10:15:39Z</time>
      </trkpt>
      <trkpt lat="50.20735340192914" lon="6.427685162052512">
        <ele>420.25</ele>
        <time>2017-06-06T10:15:44Z</time>
      </trkpt>
      <trkpt lat="50.207456331700087" lon="6.427922621369362">
        <ele>419.69</ele>
        <time>2017-06-06T10:15:58Z</time>
      </trkpt>
      <trkpt lat="50.20766269415617" lon="6.42792010679841">
        <ele>421.38</ele>
        <time>2017-06-06T10:16:13Z</time>
      </trkpt>
      <trkpt lat="50.207821615040302" lon="6.427887249737978">
        <ele>420.13999999999999</ele>
        <time>2017-06-06T10:16:25Z</time>
      </trkpt>
      <trkpt lat="50.207933094352484" lon="6.427921866998076">
        <ele>420.92000000000002</ele>
        <time>2017-06-06T10:16:34Z</time>
      </trkpt>
      <trkpt lat="50.208092853426933" lon="6.428042398765683">
        <ele>420.60000000000002</ele>
        <time>2017-06-06T10:16:49Z</time>
      </trkpt>
      <trkpt lat="50.208155885338783" lon="6.428074669092894">
        <ele>420.42000000000002</ele>
        <time>2017-06-06T10:16:54Z</time>
      </trkpt>
      <trkpt lat="50.208242805674672" lon="6.428299304097891">
        <ele>421.51999999999998</ele>
        <time>2017-06-06T10:17:08Z</time>
      </trkpt>
      <trkpt lat="50.208285134285688" lon="6.428381614387035">
        <ele>423.61000000000001</ele>
        <time>2017-06-06T10:17:14Z</time>
      </trkpt>
      <trkpt lat="50.208314722403884" lon="6.428404077887535">
        <ele>424.18000000000001</ele>
        <time>2017-06-06T10:17:17Z</time>
      </trkpt>
      <trkpt lat="50.208417065441608" lon="6.428471803665161">
        <ele>427.31</ele>
        <time>2017-06-06T10:17:27Z</time>
      </trkpt>
      <trkpt lat="50.208526281639934" lon="6.428586971014738">
        <ele>430.43000000000001</ele>
        <time>2017-06-06T10:17:39Z</time>
      </trkpt>
      <trkpt lat="50.208713030442595" lon="6.428717728704214">
        <ele>433.57999999999998</ele>
        <time>2017-06-06T10:17:57Z</time>
      </trkpt>
      <trkpt lat="50.208806153386831" lon="6.428833147510886">
        <ele>436.82999999999998</ele>
        <time>2017-06-06T10:18:13Z</time>
      </trkpt>
      <trkpt lat="50.208945125341415" lon="6.428981926292181">
        <ele>438.80000000000001</ele>
        <time>2017-06-06T10:18:35Z</time>
      </trkpt>
      <trkpt lat="50.209031878039241" lon="6.429099105298519">
        <ele>441.91000000000003</ele>
        <time>2017-06-06T10:18:49Z</time>
      </trkpt>
      <trkpt lat="50.209134640172124" lon="6.429275795817375">
        <ele>443.97000000000003</ele>
        <time>2017-06-06T10:19:07Z</time>
      </trkpt>
      <trkpt lat="50.20915157161653" lon="6.429318292066455">
        <ele>445</ele>
        <time>2017-06-06T10:19:11Z</time>
      </trkpt>
      <trkpt lat="50.209251819178462" lon="6.429458605125547">
        <ele>447.00999999999999</ele>
        <time>2017-06-06T10:19:23Z</time>
      </trkpt>
      <trkpt lat="50.209300015121698" lon="6.429537311196327">
        <ele>447.77999999999997</ele>
        <time>2017-06-06T10:19:29Z</time>
      </trkpt>
      <trkpt lat="50.209915414452553" lon="6.430578511208296">
        <ele>449.94</ele>
        <time>2017-06-06T10:20:45Z</time>
      </trkpt>
      <trkpt lat="50.210215486586094" lon="6.431085029616952">
        <ele>447.12</ele>
        <time>2017-06-06T10:22:44Z</time>
      </trkpt>
      <trkpt lat="50.210297042503953" lon="6.431173291057348">
        <ele>448.50999999999999</ele>
        <time>2017-06-06T10:23:01Z</time>
      </trkpt>
      <trkpt lat="50.210481276735663" lon="6.431425083428621">
        <ele>449.77999999999997</ele>
        <time>2017-06-06T10:23:22Z</time>
      </trkpt>
      <trkpt lat="50.21050650626421" lon="6.431470345705748">
        <ele>450.16000000000003</ele>
        <time>2017-06-06T10:23:25Z</time>
      </trkpt>
      <trkpt lat="50.210748743265867" lon="6.431716019287705">
        <ele>452.57999999999998</ele>
        <time>2017-06-06T10:23:47Z</time>
      </trkpt>
      <trkpt lat="50.210755448788404" lon="6.431720377877355">
        <ele>452.49000000000001</ele>
        <time>2017-06-06T10:23:50Z</time>
      </trkpt>
      <trkpt lat="50.210797609761357" lon="6.431746948510408">
        <ele>452.57999999999998</ele>
        <time>2017-06-06T10:23:58Z</time>
      </trkpt>
      <trkpt lat="50.21076207049191" lon="6.431741835549474">
        <ele>453.29000000000002</ele>
        <time>2017-06-06T10:24:17Z</time>
      </trkpt>
      <trkpt lat="50.210784366354346" lon="6.431728173047304">
        <ele>452.32999999999998</ele>
        <time>2017-06-06T10:24:33Z</time>
      </trkpt>
      <trkpt lat="50.210799872875214" lon="6.431757425889373">
        <ele>452.02999999999997</ele>
        <time>2017-06-06T10:24:37Z</time>
      </trkpt>
      <trkpt lat="50.210856534540653" lon="6.431831438094378">
        <ele>452.51999999999998</ele>
        <time>2017-06-06T10:24:44Z</time>
      </trkpt>
      <trkpt lat="50.210890984162688" lon="6.431904528290033">
        <ele>452.94</ele>
        <time>2017-06-06T10:24:48Z</time>
      </trkpt>
      <trkpt lat="50.210979329422116" lon="6.432037381455302">
        <ele>453.88</ele>
        <time>2017-06-06T10:25:02Z</time>
      </trkpt>
      <trkpt lat="50.211079157888889" lon="6.432224214076996">
        <ele>454.38</ele>
        <time>2017-06-06T10:25:19Z</time>
      </trkpt>
      <trkpt lat="50.211258782073855" lon="6.432456728070974">
        <ele>454.51999999999998</ele>
        <time>2017-06-06T10:25:39Z</time>
      </trkpt>
      <trkpt lat="50.211318042129278" lon="6.432578517124057">
        <ele>454.68000000000001</ele>
        <time>2017-06-06T10:25:48Z</time>
      </trkpt>
      <trkpt lat="50.211344109848142" lon="6.43262168392539">
        <ele>454.73000000000002</ele>
        <time>2017-06-06T10:25:50Z</time>
      </trkpt>
      <trkpt lat="50.211497750133276" lon="6.432859562337399">
        <ele>455.33999999999997</ele>
        <time>2017-06-06T10:26:05Z</time>
      </trkpt>
      <trkpt lat="50.211542844772339" lon="6.432921588420868">
        <ele>455.77999999999997</ele>
        <time>2017-06-06T10:26:09Z</time>
      </trkpt>
      <trkpt lat="50.2115673199296" lon="6.432955032214522">
        <ele>455.76999999999998</ele>
        <time>2017-06-06T10:26:11Z</time>
      </trkpt>
      <trkpt lat="50.211606714874506" lon="6.432983698323369">
        <ele>456.13</ele>
        <time>2017-06-06T10:26:14Z</time>
      </trkpt>
      <trkpt lat="50.211625238880515" lon="6.433010185137391">
        <ele>455.91000000000003</ele>
        <time>2017-06-06T10:26:16Z</time>
      </trkpt>
      <trkpt lat="50.211782399564981" lon="6.433220151811838">
        <ele>455.76999999999998</ele>
        <time>2017-06-06T10:26:31Z</time>
      </trkpt>
      <trkpt lat="50.211829170584679" lon="6.433275723829866">
        <ele>455.56</ele>
        <time>2017-06-06T10:26:35Z</time>
      </trkpt>
      <trkpt lat="50.211912151426077" lon="6.433406649157405">
        <ele>456.27999999999997</ele>
        <time>2017-06-06T10:26:40Z</time>
      </trkpt>
      <trkpt lat="50.212004100903869" lon="6.433524079620838">
        <ele>456.64999999999998</ele>
        <time>2017-06-06T10:26:44Z</time>
      </trkpt>
      <trkpt lat="50.21208381280303" lon="6.433583255857229">
        <ele>456.76999999999998</ele>
        <time>2017-06-06T10:26:48Z</time>
      </trkpt>
      <trkpt lat="50.212340885773301" lon="6.433850135654211">
        <ele>453.44</ele>
        <time>2017-06-06T10:27:01Z</time>
      </trkpt>
      <trkpt lat="50.212644645944238" lon="6.434145011007786">
        <ele>451.79000000000002</ele>
        <time>2017-06-06T10:27:13Z</time>
      </trkpt>
      <trkpt lat="50.212718825787306" lon="6.434213574975729">
        <ele>452.05000000000001</ele>
        <time>2017-06-06T10:27:17Z</time>
      </trkpt>
      <trkpt lat="50.212743887677789" lon="6.434231512248516">
        <ele>452.25999999999999</ele>
        <time>2017-06-06T10:27:18Z</time>
      </trkpt>
      <trkpt lat="50.212772469967604" lon="6.434250120073557">
        <ele>451.68000000000001</ele>
        <time>2017-06-06T10:27:19Z</time>
      </trkpt>
      <trkpt lat="50.213335985317826" lon="6.434695869684219">
        <ele>449.35000000000002</ele>
        <time>2017-06-06T10:27:40Z</time>
      </trkpt>
      <trkpt lat="50.213641421869397" lon="6.434841295704246">
        <ele>447.05000000000001</ele>
        <time>2017-06-06T10:27:59Z</time>
      </trkpt>
      <trkpt lat="50.213834373280406" lon="6.434836769476533">
        <ele>445.56999999999999</ele>
        <time>2017-06-06T10:28:12Z</time>
      </trkpt>
      <trkpt lat="50.213860273361206" lon="6.434832746163011">
        <ele>445.20999999999998</ele>
        <time>2017-06-06T10:28:14Z</time>
      </trkpt>
      <trkpt lat="50.213873935863376" lon="6.434832662343979">
        <ele>445</ele>
        <time>2017-06-06T10:28:15Z</time>
      </trkpt>
      <trkpt lat="50.213888939470053" lon="6.434833500534296">
        <ele>444.74000000000001</ele>
        <time>2017-06-06T10:28:16Z</time>
      </trkpt>
      <trkpt lat="50.214080633595586" lon="6.434870883822441">
        <ele>443.13999999999999</ele>
        <time>2017-06-06T10:28:30Z</time>
      </trkpt>
      <trkpt lat="50.214237626641989" lon="6.434945147484541">
        <ele>440.08999999999997</ele>
        <time>2017-06-06T10:28:44Z</time>
      </trkpt>
      <trkpt lat="50.214376682415605" lon="6.43505310639739">
        <ele>437.02999999999997</ele>
        <time>2017-06-06T10:28:58Z</time>
      </trkpt>
      <trkpt lat="50.214638030156493" lon="6.435210015624762">
        <ele>435.87</ele>
        <time>2017-06-06T10:29:10Z</time>
      </trkpt>
      <trkpt lat="50.215006750077009" lon="6.435504807159305">
        <ele>434.93000000000001</ele>
        <time>2017-06-06T10:29:23Z</time>
      </trkpt>
      <trkpt lat="50.215158881619573" lon="6.435646126046777">
        <ele>434.55000000000001</ele>
        <time>2017-06-06T10:29:27Z</time>
      </trkpt>
      <trkpt lat="50.21556138060987" lon="6.435975283384323">
        <ele>434.83999999999997</ele>
        <time>2017-06-06T10:29:34Z</time>
      </trkpt>
      <trkpt lat="50.214212564751506" lon="6.438302267342806">
        <ele>479.56</ele>
        <time>2017-06-06T10:34:48Z</time>
      </trkpt>
      <trkpt lat="50.214044759050012" lon="6.438252562656999">
        <ele>479.35000000000002</ele>
        <time>2017-06-06T10:35:04Z</time>
      </trkpt>
      <trkpt lat="50.213956329971552" lon="6.438620025292039">
        <ele>479.38999999999999</ele>
        <time>2017-06-06T10:35:05Z</time>
      </trkpt>
      <trkpt lat="50.214180462062359" lon="6.438937280327082">
        <ele>479.02999999999997</ele>
        <time>2017-06-06T10:35:16Z</time>
      </trkpt>
      <trkpt lat="50.214610202237964" lon="6.439046999439597">
        <ele>482.04000000000002</ele>
        <time>2017-06-06T10:35:41Z</time>
      </trkpt>
      <trkpt lat="50.215473957359791" lon="6.439118916168809">
        <ele>485.98000000000002</ele>
        <time>2017-06-06T10:36:08Z</time>
      </trkpt>
      <trkpt lat="50.21583161316812" lon="6.439109947532415">
        <ele>488.16000000000003</ele>
        <time>2017-06-06T10:36:19Z</time>
      </trkpt>
      <trkpt lat="50.216096648946404" lon="6.439349334686995">
        <ele>488.75999999999999</ele>
        <time>2017-06-06T10:36:28Z</time>
      </trkpt>
      <trkpt lat="50.216127829626203" lon="6.43939359113574">
        <ele>488.85000000000002</ele>
        <time>2017-06-06T10:36:29Z</time>
      </trkpt>
      <trkpt lat="50.216154400259256" lon="6.439434075728059">
        <ele>488.82999999999998</ele>
        <time>2017-06-06T10:36:30Z</time>
      </trkpt>
      <trkpt lat="50.21618097089231" lon="6.43947078846395">
        <ele>488.81</ele>
        <time>2017-06-06T10:36:31Z</time>
      </trkpt>
      <trkpt lat="50.216209217905998" lon="6.439512949436903">
        <ele>488.73000000000002</ele>
        <time>2017-06-06T10:36:32Z</time>
      </trkpt>
      <trkpt lat="50.216238889843225" lon="6.439560977742076">
        <ele>488.68000000000001</ele>
        <time>2017-06-06T10:36:33Z</time>
      </trkpt>
      <trkpt lat="50.216294964775443" lon="6.439632726833224">
        <ele>488.81</ele>
        <time>2017-06-06T10:36:35Z</time>
      </trkpt>
      <trkpt lat="50.21667986176908" lon="6.4400864392519">
        <ele>488.77999999999997</ele>
        <time>2017-06-06T10:36:46Z</time>
      </trkpt>
      <trkpt lat="50.21702284924686" lon="6.440460523590446">
        <ele>489.87</ele>
        <time>2017-06-06T10:36:57Z</time>
      </trkpt>
      <trkpt lat="50.217134244740009" lon="6.440582061186433">
        <ele>490.87</ele>
        <time>2017-06-06T10:37:04Z</time>
      </trkpt>
      <trkpt lat="50.217148410156369" lon="6.440590526908636">
        <ele>490.81999999999999</ele>
        <time>2017-06-06T10:37:05Z</time>
      </trkpt>
      <trkpt lat="50.217295931652188" lon="6.440757242962718">
        <ele>490.89999999999998</ele>
        <time>2017-06-06T10:37:18Z</time>
      </trkpt>
      <trkpt lat="50.21748460829258" lon="6.440966203808785">
        <ele>491.30000000000001</ele>
        <time>2017-06-06T10:37:33Z</time>
      </trkpt>
      <trkpt lat="50.217622239142656" lon="6.441152030602098">
        <ele>491.41000000000003</ele>
        <time>2017-06-06T10:37:47Z</time>
      </trkpt>
      <trkpt lat="50.217634560540318" lon="6.441165441647172">
        <ele>491.5</ele>
        <time>2017-06-06T10:37:48Z</time>
      </trkpt>
      <trkpt lat="50.217645121738315" lon="6.441182373091579">
        <ele>491.68000000000001</ele>
        <time>2017-06-06T10:37:49Z</time>
      </trkpt>
      <trkpt lat="50.217653922736645" lon="6.441196789965034">
        <ele>491.95999999999998</ele>
        <time>2017-06-06T10:37:50Z</time>
      </trkpt>
      <trkpt lat="50.217664483934641" lon="6.441209698095918">
        <ele>492.19999999999999</ele>
        <time>2017-06-06T10:37:51Z</time>
      </trkpt>
      <trkpt lat="50.217794654890895" lon="6.441400134935975">
        <ele>492.56</ele>
        <time>2017-06-06T10:38:07Z</time>
      </trkpt>
      <trkpt lat="50.217960616573691" lon="6.44162074662745">
        <ele>492.27999999999997</ele>
        <time>2017-06-06T10:38:23Z</time>
      </trkpt>
      <trkpt lat="50.218125991523266" lon="6.441814284771681">
        <ele>492.98000000000002</ele>
        <time>2017-06-06T10:38:40Z</time>
      </trkpt>
      <trkpt lat="50.218152645975351" lon="6.441915454342961">
        <ele>492.54000000000002</ele>
        <time>2017-06-06T10:38:56Z</time>
      </trkpt>
      <trkpt lat="50.218262197449803" lon="6.442560274153948">
        <ele>494.31</ele>
        <time>2017-06-06T10:39:15Z</time>
      </trkpt>
      <trkpt lat="50.21823956631124" lon="6.442564548924565">
        <ele>495.07999999999998</ele>
        <time>2017-06-06T10:39:20Z</time>
      </trkpt>
      <trkpt lat="50.218229759484529" lon="6.442555077373982">
        <ele>494.88999999999999</ele>
        <time>2017-06-06T10:39:21Z</time>
      </trkpt>
      <trkpt lat="50.218220623210073" lon="6.442543426528573">
        <ele>494.56</ele>
        <time>2017-06-06T10:39:22Z</time>
      </trkpt>
      <trkpt lat="50.218213247135282" lon="6.442528087645769">
        <ele>494.50999999999999</ele>
        <time>2017-06-06T10:39:23Z</time>
      </trkpt>
      <trkpt lat="50.218082824721932" lon="6.442358437925577">
        <ele>496.51999999999998</ele>
        <time>2017-06-06T10:39:37Z</time>
      </trkpt>
      <trkpt lat="50.217762216925621" lon="6.441932888701558">
        <ele>499.98000000000002</ele>
        <time>2017-06-06T10:40:11Z</time>
      </trkpt>
      <trkpt lat="50.216769883409142" lon="6.441470878198743">
        <ele>509.85000000000002</ele>
        <time>2017-06-06T10:41:33Z</time>
      </trkpt>
      <trkpt lat="50.216761082410812" lon="6.442401185631752">
        <ele>511.16000000000003</ele>
        <time>2017-06-06T10:43:46Z</time>
      </trkpt>
      <trkpt lat="50.216682376340032" lon="6.444700760766864">
        <ele>513.67999999999995</ele>
        <time>2017-06-06T10:45:41Z</time>
      </trkpt>
      <trkpt lat="50.216666115447879" lon="6.445120023563504">
        <ele>514.25999999999999</ele>
        <time>2017-06-06T10:46:02Z</time>
      </trkpt>
      <trkpt lat="50.216696122661233" lon="6.445414982736111">
        <ele>516.35000000000002</ele>
        <time>2017-06-06T10:46:17Z</time>
      </trkpt>
      <trkpt lat="50.216800728812814" lon="6.445598546415567">
        <ele>515.75</ele>
        <time>2017-06-06T10:46:29Z</time>
      </trkpt>
      <trkpt lat="50.216810535639524" lon="6.445612208917737">
        <ele>515.63</ele>
        <time>2017-06-06T10:46:30Z</time>
      </trkpt>
      <trkpt lat="50.216818917542696" lon="6.445623440667987">
        <ele>515.61000000000001</ele>
        <time>2017-06-06T10:46:31Z</time>
      </trkpt>
      <trkpt lat="50.216825790703297" lon="6.445639617741108">
        <ele>515.41999999999996</ele>
        <time>2017-06-06T10:46:32Z</time>
      </trkpt>
      <trkpt lat="50.216832412406802" lon="6.445656130090356">
        <ele>515.10000000000002</ele>
        <time>2017-06-06T10:46:33Z</time>
      </trkpt>
      <trkpt lat="50.216962331905961" lon="6.446007080376148">
        <ele>515.50999999999999</ele>
        <time>2017-06-06T10:46:53Z</time>
      </trkpt>
      <trkpt lat="50.216895779594779" lon="6.446205899119377">
        <ele>516.91999999999996</ele>
        <time>2017-06-06T10:47:05Z</time>
      </trkpt>
      <trkpt lat="50.21689485758543" lon="6.446223501116037">
        <ele>517</ele>
        <time>2017-06-06T10:47:06Z</time>
      </trkpt>
      <trkpt lat="50.21689435467124" lon="6.446241019293666">
        <ele>517.05999999999995</ele>
        <time>2017-06-06T10:47:07Z</time>
      </trkpt>
      <trkpt lat="50.21688069216907" lon="6.44655148498714">
        <ele>519.03999999999996</ele>
        <time>2017-06-06T10:47:25Z</time>
      </trkpt>
      <trkpt lat="50.216991920024157" lon="6.446805205196142">
        <ele>519.55999999999995</ele>
        <time>2017-06-06T10:47:40Z</time>
      </trkpt>
      <trkpt lat="50.217076996341348" lon="6.447088262066245">
        <ele>519.41999999999996</ele>
        <time>2017-06-06T10:47:58Z</time>
      </trkpt>
      <trkpt lat="50.217206412926316" lon="6.447333181276918">
        <ele>518.72000000000003</ele>
        <time>2017-06-06T10:48:14Z</time>
      </trkpt>
      <trkpt lat="50.217348570004106" lon="6.447634845972061">
        <ele>518.30999999999995</ele>
        <time>2017-06-06T10:48:30Z</time>
      </trkpt>
      <trkpt lat="50.217412188649178" lon="6.447779098525643">
        <ele>517.72000000000003</ele>
        <time>2017-06-06T10:48:39Z</time>
      </trkpt>
      <trkpt lat="50.217504724860191" lon="6.448004739359021">
        <ele>517.45000000000005</ele>
        <time>2017-06-06T10:48:53Z</time>
      </trkpt>
      <trkpt lat="50.21761117503047" lon="6.448256950825453">
        <ele>517.45000000000005</ele>
        <time>2017-06-06T10:49:08Z</time>
      </trkpt>
      <trkpt lat="50.217619305476546" lon="6.448279162868857">
        <ele>517.46000000000004</ele>
        <time>2017-06-06T10:49:09Z</time>
      </trkpt>
      <trkpt lat="50.217627352103591" lon="6.448299027979374">
        <ele>517.54999999999995</ele>
        <time>2017-06-06T10:49:10Z</time>
      </trkpt>
      <trkpt lat="50.217632465064526" lon="6.448317719623447">
        <ele>517.72000000000003</ele>
        <time>2017-06-06T10:49:11Z</time>
      </trkpt>
      <trkpt lat="50.217638332396746" lon="6.448339009657502">
        <ele>517.69000000000005</ele>
        <time>2017-06-06T10:49:12Z</time>
      </trkpt>
      <trkpt lat="50.217644954100251" lon="6.448362562805414">
        <ele>517.69000000000005</ele>
        <time>2017-06-06T10:49:13Z</time>
      </trkpt>
      <trkpt lat="50.217653587460518" lon="6.448394749313593">
        <ele>517.66999999999996</ele>
        <time>2017-06-06T10:49:14Z</time>
      </trkpt>
      <trkpt lat="50.217765150591731" lon="6.448735054582357">
        <ele>518.17999999999995</ele>
        <time>2017-06-06T10:49:20Z</time>
      </trkpt>
      <trkpt lat="50.217703711241484" lon="6.448839325457811">
        <ele>518.39999999999998</ele>
        <time>2017-06-06T10:49:22Z</time>
      </trkpt>
      <trkpt lat="50.21773187443614" lon="6.449288008734584">
        <ele>524.49000000000001</ele>
        <time>2017-06-06T10:50:48Z</time>
      </trkpt>
      <trkpt lat="50.217764647677541" lon="6.44951012916863">
        <ele>527.57000000000005</ele>
        <time>2017-06-06T10:51:02Z</time>
      </trkpt>
      <trkpt lat="50.217757355421782" lon="6.449549021199346">
        <ele>527.70000000000005</ele>
        <time>2017-06-06T10:51:04Z</time>
      </trkpt>
      <trkpt lat="50.217745201662183" lon="6.449678270146251">
        <ele>528.71000000000004</ele>
        <time>2017-06-06T10:51:12Z</time>
      </trkpt>
      <trkpt lat="50.217597177252173" lon="6.449923189356923">
        <ele>528.15999999999997</ele>
        <time>2017-06-06T10:51:28Z</time>
      </trkpt>
      <trkpt lat="50.21745921112597" lon="6.450013965368271">
        <ele>527.75</ele>
        <time>2017-06-06T10:51:40Z</time>
      </trkpt>
      <trkpt lat="50.217298362404108" lon="6.450124774128199">
        <ele>526.91999999999996</ele>
        <time>2017-06-06T10:51:55Z</time>
      </trkpt>
      <trkpt lat="50.2170673571527" lon="6.450205659493804">
        <ele>524.59000000000003</ele>
        <time>2017-06-06T10:52:15Z</time>
      </trkpt>
      <trkpt lat="50.216879267245531" lon="6.450311942026019">
        <ele>522.88999999999999</ele>
        <time>2017-06-06T10:52:31Z</time>
      </trkpt>
      <trkpt lat="50.216729398816824" lon="6.450387295335531">
        <ele>520.80999999999995</ele>
        <time>2017-06-06T10:52:44Z</time>
      </trkpt>
      <trkpt lat="50.216610878705978" lon="6.450484525412321">
        <ele>518.12</ele>
        <time>2017-06-06T10:52:56Z</time>
      </trkpt>
      <trkpt lat="50.216610794886947" lon="6.450503133237362">
        <ele>517.84000000000003</ele>
        <time>2017-06-06T10:52:57Z</time>
      </trkpt>
      <trkpt lat="50.216613225638866" lon="6.450524171814323">
        <ele>517.66999999999996</ele>
        <time>2017-06-06T10:52:58Z</time>
      </trkpt>
      <trkpt lat="50.216617751866579" lon="6.450543953105807">
        <ele>517.70000000000005</ele>
        <time>2017-06-06T10:52:59Z</time>
      </trkpt>
      <trkpt lat="50.216623535379767" lon="6.450560800731182">
        <ele>517.73000000000002</ele>
        <time>2017-06-06T10:53:00Z</time>
      </trkpt>
      <trkpt lat="50.216644825413823" lon="6.450642440468073">
        <ele>517.28999999999996</ele>
        <time>2017-06-06T10:53:11Z</time>
      </trkpt>
      <trkpt lat="50.216655051335692" lon="6.450657024979591">
        <ele>517.14999999999998</ele>
        <time>2017-06-06T10:53:12Z</time>
      </trkpt>
      <trkpt lat="50.216663433238864" lon="6.45067504607141">
        <ele>517.17999999999995</ele>
        <time>2017-06-06T10:53:13Z</time>
      </trkpt>
      <trkpt lat="50.21667055785656" lon="6.450691893696785">
        <ele>517.08000000000004</ele>
        <time>2017-06-06T10:53:14Z</time>
      </trkpt>
      <trkpt lat="50.216677095741034" lon="6.450706226751208">
        <ele>517.12</ele>
        <time>2017-06-06T10:53:15Z</time>
      </trkpt>
      <trkpt lat="50.216684304177761" lon="6.450722990557551">
        <ele>517.15999999999997</ele>
        <time>2017-06-06T10:53:16Z</time>
      </trkpt>
      <trkpt lat="50.216691344976425" lon="6.450742604210973">
        <ele>517.13</ele>
        <time>2017-06-06T10:53:17Z</time>
      </trkpt>
      <trkpt lat="50.216793101280928" lon="6.450985427945852">
        <ele>516.48000000000002</ele>
        <time>2017-06-06T10:53:31Z</time>
      </trkpt>
      <trkpt lat="50.21680248901248" lon="6.451000850647688">
        <ele>516.47000000000003</ele>
        <time>2017-06-06T10:53:32Z</time>
      </trkpt>
      <trkpt lat="50.216947076842189" lon="6.451320201158524">
        <ele>515.24000000000001</ele>
        <time>2017-06-06T10:53:50Z</time>
      </trkpt>
      <trkpt lat="50.217099292203784" lon="6.451675342395902">
        <ele>513.88</ele>
        <time>2017-06-06T10:54:11Z</time>
      </trkpt>
      <trkpt lat="50.217327447608113" lon="6.45220591686666">
        <ele>512.38999999999999</ele>
        <time>2017-06-06T10:54:41Z</time>
      </trkpt>
      <trkpt lat="50.217492738738656" lon="6.452621826902032">
        <ele>511.43000000000001</ele>
        <time>2017-06-06T10:55:05Z</time>
      </trkpt>
      <trkpt lat="50.21759944036603" lon="6.452908236533403">
        <ele>510.47000000000003</ele>
        <time>2017-06-06T10:55:22Z</time>
      </trkpt>
      <trkpt lat="50.217604134231806" lon="6.452923743054271">
        <ele>510.56999999999999</ele>
        <time>2017-06-06T10:55:23Z</time>
      </trkpt>
      <trkpt lat="50.217724749818444" lon="6.453133122995496">
        <ele>510.99000000000001</ele>
        <time>2017-06-06T10:55:38Z</time>
      </trkpt>
      <trkpt lat="50.217857519164681" lon="6.453414000570774">
        <ele>511.50999999999999</ele>
        <time>2017-06-06T10:55:56Z</time>
      </trkpt>
      <trkpt lat="50.217987522482872" lon="6.453744079917669">
        <ele>512.10000000000002</ele>
        <time>2017-06-06T10:56:16Z</time>
      </trkpt>
      <trkpt lat="50.217993976548314" lon="6.453760759904981">
        <ele>512.13999999999999</ele>
        <time>2017-06-06T10:56:17Z</time>
      </trkpt>
      <trkpt lat="50.218000179156661" lon="6.453775428235531">
        <ele>512.14999999999998</ele>
        <time>2017-06-06T10:56:18Z</time>
      </trkpt>
      <trkpt lat="50.21800646558404" lon="6.453790850937367">
        <ele>512.17999999999995</ele>
        <time>2017-06-06T10:56:19Z</time>
      </trkpt>
      <trkpt lat="50.218014679849148" lon="6.453805267810822">
        <ele>512.24000000000001</ele>
        <time>2017-06-06T10:56:20Z</time>
      </trkpt>
      <trkpt lat="50.218023983761668" lon="6.453820606693626">
        <ele>512.36000000000001</ele>
        <time>2017-06-06T10:56:21Z</time>
      </trkpt>
      <trkpt lat="50.218032198026776" lon="6.453834185376763">
        <ele>512.29999999999995</ele>
        <time>2017-06-06T10:56:22Z</time>
      </trkpt>
      <trkpt lat="50.218041753396392" lon="6.45384524948895">
        <ele>512.46000000000004</ele>
        <time>2017-06-06T10:56:23Z</time>
      </trkpt>
      <trkpt lat="50.218193046748638" lon="6.453935606405139">
        <ele>514.33000000000004</ele>
        <time>2017-06-06T10:56:37Z</time>
      </trkpt>
      <trkpt lat="50.218412987887859" lon="6.454010037705302">
        <ele>516.09000000000003</ele>
        <time>2017-06-06T10:56:56Z</time>
      </trkpt>
      <trkpt lat="50.218642316758633" lon="6.454064939171076">
        <ele>517.96000000000004</ele>
        <time>2017-06-06T10:57:14Z</time>
      </trkpt>
      <trkpt lat="50.218656063079834" lon="6.454070890322328">
        <ele>517.96000000000004</ele>
        <time>2017-06-06T10:57:15Z</time>
      </trkpt>
      <trkpt lat="50.2189065143466" lon="6.454203156754375">
        <ele>519.40999999999997</ele>
        <time>2017-06-06T10:57:36Z</time>
      </trkpt>
      <trkpt lat="50.219570528715849" lon="6.454542707651854">
        <ele>520.20000000000005</ele>
        <time>2017-06-06T10:57:54Z</time>
      </trkpt>
      <trkpt lat="50.219723749905825" lon="6.455149473622441">
        <ele>520.42999999999995</ele>
        <time>2017-06-06T10:58:06Z</time>
      </trkpt>
      <trkpt lat="50.219834726303816" lon="6.455570161342621">
        <ele>521.76999999999998</ele>
        <time>2017-06-06T10:58:22Z</time>
      </trkpt>
      <trkpt lat="50.219945451244712" lon="6.456102998927236">
        <ele>523.02999999999997</ele>
        <time>2017-06-06T10:58:39Z</time>
      </trkpt>
      <trkpt lat="50.219984175637364" lon="6.456355210393667">
        <ele>523.15999999999997</ele>
        <time>2017-06-06T10:58:56Z</time>
      </trkpt>
      <trkpt lat="50.220049722120166" lon="6.456682104617357">
        <ele>523.08000000000004</ele>
        <time>2017-06-06T10:59:13Z</time>
      </trkpt>
      <trkpt lat="50.220137564465404" lon="6.456973208114505">
        <ele>523.54999999999995</ele>
        <time>2017-06-06T10:59:29Z</time>
      </trkpt>
      <trkpt lat="50.2203587628901" lon="6.457355925813317">
        <ele>524.38</ele>
        <time>2017-06-06T10:59:54Z</time>
      </trkpt>
      <trkpt lat="50.220448197796941" lon="6.457534208893776">
        <ele>524.46000000000004</ele>
        <time>2017-06-06T11:00:06Z</time>
      </trkpt>
      <trkpt lat="50.220455657690763" lon="6.457549799233675">
        <ele>524.59000000000003</ele>
        <time>2017-06-06T11:00:07Z</time>
      </trkpt>
      <trkpt lat="50.220465715974569" lon="6.457563629373908">
        <ele>524.63</ele>
        <time>2017-06-06T11:00:08Z</time>
      </trkpt>
      <trkpt lat="50.220474349334836" lon="6.457579052075744">
        <ele>524.66999999999996</ele>
        <time>2017-06-06T11:00:09Z</time>
      </trkpt>
      <trkpt lat="50.220481306314468" lon="6.457594390958548">
        <ele>524.72000000000003</ele>
        <time>2017-06-06T11:00:10Z</time>
      </trkpt>
      <trkpt lat="50.220488514751196" lon="6.457608472555876">
        <ele>524.59000000000003</ele>
        <time>2017-06-06T11:00:11Z</time>
      </trkpt>
      <trkpt lat="50.220651878044009" lon="6.457885075360537">
        <ele>525.32000000000005</ele>
        <time>2017-06-06T11:00:30Z</time>
      </trkpt>
      <trkpt lat="50.220762519165874" lon="6.458137035369873">
        <ele>525.58000000000004</ele>
        <time>2017-06-06T11:00:45Z</time>
      </trkpt>
      <trkpt lat="50.220923451706767" lon="6.458567027002573">
        <ele>526.61000000000001</ele>
        <time>2017-06-06T11:01:10Z</time>
      </trkpt>
      <trkpt lat="50.221134256571531" lon="6.459095757454634">
        <ele>527.13999999999999</ele>
        <time>2017-06-06T11:01:42Z</time>
      </trkpt>
      <trkpt lat="50.221284795552492" lon="6.459478810429573">
        <ele>527.24000000000001</ele>
        <time>2017-06-06T11:02:05Z</time>
      </trkpt>
      <trkpt lat="50.221360065042973" lon="6.45974837243557">
        <ele>527.90999999999997</ele>
        <time>2017-06-06T11:02:20Z</time>
      </trkpt>
      <trkpt lat="50.221352353692055" lon="6.45976304076612">
        <ele>528.01999999999998</ele>
        <time>2017-06-06T11:02:21Z</time>
      </trkpt>
      <trkpt lat="50.221341792494059" lon="6.459775362163782">
        <ele>528.12</ele>
        <time>2017-06-06T11:02:22Z</time>
      </trkpt>
      <trkpt lat="50.221331901848316" lon="6.459785336628556">
        <ele>527.88999999999999</ele>
        <time>2017-06-06T11:02:23Z</time>
      </trkpt>
      <trkpt lat="50.221322095021605" lon="6.459793886169791">
        <ele>527.61000000000001</ele>
        <time>2017-06-06T11:02:24Z</time>
      </trkpt>
      <trkpt lat="50.22101791575551" lon="6.459935624152422">
        <ele>525.36000000000001</ele>
        <time>2017-06-06T11:02:40Z</time>
      </trkpt>
      <trkpt lat="50.220375694334507" lon="6.460261261090636">
        <ele>523.59000000000003</ele>
        <time>2017-06-06T11:03:00Z</time>
      </trkpt>
      <trkpt lat="50.219798181205988" lon="6.460521435365081">
        <ele>525.28999999999996</ele>
        <time>2017-06-06T11:03:14Z</time>
      </trkpt>
      <trkpt lat="50.219478663057089" lon="6.46070416085422">
        <ele>526.99000000000001</ele>
        <time>2017-06-06T11:03:24Z</time>
      </trkpt>
      <trkpt lat="50.219380762428045" lon="6.460838187485933">
        <ele>526.67999999999995</ele>
        <time>2017-06-06T11:03:36Z</time>
      </trkpt>
      <trkpt lat="50.219382103532553" lon="6.460858974605799">
        <ele>526.89999999999998</ele>
        <time>2017-06-06T11:03:37Z</time>
      </trkpt>
      <trkpt lat="50.219385456293821" lon="6.460878755897284">
        <ele>527.27999999999997</ele>
        <time>2017-06-06T11:03:38Z</time>
      </trkpt>
      <trkpt lat="50.219492744654417" lon="6.461222497746348">
        <ele>528.66999999999996</ele>
        <time>2017-06-06T11:03:57Z</time>
      </trkpt>
      <trkpt lat="50.219547813758254" lon="6.461356105282903">
        <ele>529.28999999999996</ele>
        <time>2017-06-06T11:04:13Z</time>
      </trkpt>
      <trkpt lat="50.219574803486466" lon="6.461421400308609">
        <ele>529.25999999999999</ele>
        <time>2017-06-06T11:04:22Z</time>
      </trkpt>
      <trkpt lat="50.219587292522192" lon="6.461451072245836">
        <ele>529.51999999999998</ele>
        <time>2017-06-06T11:04:24Z</time>
      </trkpt>
      <trkpt lat="50.219689635559916" lon="6.46170923486352">
        <ele>529.71000000000004</ele>
        <time>2017-06-06T11:04:40Z</time>
      </trkpt>
      <trkpt lat="50.21982760168612" lon="6.46202732808888">
        <ele>530.14999999999998</ele>
        <time>2017-06-06T11:04:59Z</time>
      </trkpt>
      <trkpt lat="50.219953330233693" lon="6.462337207049131">
        <ele>529.39999999999998</ele>
        <time>2017-06-06T11:05:18Z</time>
      </trkpt>
      <trkpt lat="50.220046536996961" lon="6.462613726034761">
        <ele>529.13</ele>
        <time>2017-06-06T11:05:35Z</time>
      </trkpt>
      <trkpt lat="50.220074113458395" lon="6.462729815393686">
        <ele>528.89999999999998</ele>
        <time>2017-06-06T11:05:42Z</time>
      </trkpt>
      <trkpt lat="50.220078807324171" lon="6.462744902819395">
        <ele>529.00999999999999</ele>
        <time>2017-06-06T11:05:43Z</time>
      </trkpt>
      <trkpt lat="50.220145275816321" lon="6.46305738016963">
        <ele>528.75</ele>
        <time>2017-06-06T11:06:00Z</time>
      </trkpt>
      <trkpt lat="50.220220629125834" lon="6.463484605774283">
        <ele>528.12</ele>
        <time>2017-06-06T11:06:19Z</time>
      </trkpt>
      <trkpt lat="50.22029522806406" lon="6.4640121627599">
        <ele>525.57000000000005</ele>
        <time>2017-06-06T11:06:31Z</time>
      </trkpt>
      <trkpt lat="50.220385584980249" lon="6.46467424929142">
        <ele>522.48000000000002</ele>
        <time>2017-06-06T11:06:46Z</time>
      </trkpt>
      <trkpt lat="50.220426907762885" lon="6.464964179322124">
        <ele>522.23000000000002</ele>
        <time>2017-06-06T11:07:00Z</time>
      </trkpt>
      <trkpt lat="50.220464961603284" lon="6.465257294476032">
        <ele>520.09000000000003</ele>
        <time>2017-06-06T11:07:16Z</time>
      </trkpt>
      <trkpt lat="50.220489772036672" lon="6.465526269748807">
        <ele>518.03999999999996</ele>
        <time>2017-06-06T11:07:30Z</time>
      </trkpt>
      <trkpt lat="50.220497064292431" lon="6.465541608631611">
        <ele>518.5</ele>
        <time>2017-06-06T11:07:31Z</time>
      </trkpt>
      <trkpt lat="50.220506032928824" lon="6.465555019676685">
        <ele>518.25</ele>
        <time>2017-06-06T11:07:32Z</time>
      </trkpt>
      <trkpt lat="50.220685992389917" lon="6.465595839545131">
        <ele>518.75999999999999</ele>
        <time>2017-06-06T11:07:48Z</time>
      </trkpt>
      <trkpt lat="50.220910124480724" lon="6.465608663856983">
        <ele>516.24000000000001</ele>
        <time>2017-06-06T11:08:05Z</time>
      </trkpt>
      <trkpt lat="50.221086647361517" lon="6.465729866176844">
        <ele>513.54999999999995</ele>
        <time>2017-06-06T11:08:21Z</time>
      </trkpt>
      <trkpt lat="50.221013138070703" lon="6.466077463701367">
        <ele>512.14999999999998</ele>
        <time>2017-06-06T11:08:38Z</time>
      </trkpt>
      <trkpt lat="50.22092068567872" lon="6.466481974348426">
        <ele>509.85000000000002</ele>
        <time>2017-06-06T11:08:57Z</time>
      </trkpt>
      <trkpt lat="50.220825551077724" lon="6.466939961537719">
        <ele>507.76999999999998</ele>
        <time>2017-06-06T11:09:20Z</time>
      </trkpt>
      <trkpt lat="50.22068465128541" lon="6.467244895175099">
        <ele>504.75999999999999</ele>
        <time>2017-06-06T11:09:38Z</time>
      </trkpt>
      <trkpt lat="50.220500249415636" lon="6.467576902359724">
        <ele>502.69</ele>
        <time>2017-06-06T11:09:58Z</time>
      </trkpt>
      <trkpt lat="50.220379550009966" lon="6.467898348346353">
        <ele>499.57999999999998</ele>
        <time>2017-06-06T11:10:16Z</time>
      </trkpt>
      <trkpt lat="50.220596054568887" lon="6.468157013878226">
        <ele>499.05000000000001</ele>
        <time>2017-06-06T11:10:28Z</time>
      </trkpt>
      <trkpt lat="50.22081901319325" lon="6.468388186767697">
        <ele>501.56</ele>
        <time>2017-06-06T11:10:36Z</time>
      </trkpt>
      <trkpt lat="50.221230816096067" lon="6.468826979398727">
        <ele>503.35000000000002</ele>
        <time>2017-06-06T11:10:52Z</time>
      </trkpt>
      <trkpt lat="50.22165167145431" lon="6.469260323792696">
        <ele>505.37</ele>
        <time>2017-06-06T11:11:07Z</time>
      </trkpt>
      <trkpt lat="50.221965992823243" lon="6.469588726758957">
        <ele>508.27999999999997</ele>
        <time>2017-06-06T11:11:19Z</time>
      </trkpt>
      <trkpt lat="50.222117034718394" lon="6.469783019274473">
        <ele>508.56999999999999</ele>
        <time>2017-06-06T11:11:32Z</time>
      </trkpt>
      <trkpt lat="50.222304286435246" lon="6.469979155808687">
        <ele>509.54000000000002</ele>
        <time>2017-06-06T11:11:49Z</time>
      </trkpt>
      <trkpt lat="50.222500087693334" lon="6.470240922644734">
        <ele>508.81999999999999</ele>
        <time>2017-06-06T11:12:09Z</time>
      </trkpt>
      <trkpt lat="50.222717765718699" lon="6.470537390559912">
        <ele>508.66000000000003</ele>
        <time>2017-06-06T11:12:30Z</time>
      </trkpt>
      <trkpt lat="50.222899736836553" lon="6.470922958105803">
        <ele>509.57999999999998</ele>
        <time>2017-06-06T11:12:53Z</time>
      </trkpt>
      <trkpt lat="50.223062094300985" lon="6.471372395753861">
        <ele>511.94999999999999</ele>
        <time>2017-06-06T11:13:19Z</time>
      </trkpt>
      <trkpt lat="50.223172483965755" lon="6.471706917509437">
        <ele>513.89999999999998</ele>
        <time>2017-06-06T11:13:39Z</time>
      </trkpt>
      <trkpt lat="50.223271809518337" lon="6.471972456201911">
        <ele>515.09000000000003</ele>
        <time>2017-06-06T11:13:55Z</time>
      </trkpt>
      <trkpt lat="50.223353197798133" lon="6.472047809511423">
        <ele>516.19000000000005</ele>
        <time>2017-06-06T11:14:05Z</time>
      </trkpt>
      <trkpt lat="50.223605073988438" lon="6.471824180334806">
        <ele>515.20000000000005</ele>
        <time>2017-06-06T11:14:20Z</time>
      </trkpt>
      <trkpt lat="50.223658047616482" lon="6.471765507012606">
        <ele>515.83000000000004</ele>
        <time>2017-06-06T11:14:22Z</time>
      </trkpt>
      <trkpt lat="50.223928028717637" lon="6.471497369930148">
        <ele>519.22000000000003</ele>
        <time>2017-06-06T11:14:32Z</time>
      </trkpt>
      <trkpt lat="50.224252073094249" lon="6.471143485978246">
        <ele>520.87</ele>
        <time>2017-06-06T11:14:44Z</time>
      </trkpt>
      <trkpt lat="50.224668737500906" lon="6.470683319494128">
        <ele>522.67999999999995</ele>
        <time>2017-06-06T11:14:59Z</time>
      </trkpt>
      <trkpt lat="50.224915919825435" lon="6.470424402505159">
        <ele>526.05999999999995</ele>
        <time>2017-06-06T11:15:09Z</time>
      </trkpt>
      <trkpt lat="50.225041313096881" lon="6.470304625108838">
        <ele>528.04999999999995</ele>
        <time>2017-06-06T11:15:22Z</time>
      </trkpt>
      <trkpt lat="50.22508330643177" lon="6.47025684826076">
        <ele>530.25999999999999</ele>
        <time>2017-06-06T11:15:26Z</time>
      </trkpt>
      <trkpt lat="50.225179027765989" lon="6.470190547406673">
        <ele>533.37</ele>
        <time>2017-06-06T11:15:36Z</time>
      </trkpt>
      <trkpt lat="50.225191181525588" lon="6.470200354233384">
        <ele>533.23000000000002</ele>
        <time>2017-06-06T11:15:37Z</time>
      </trkpt>
      <trkpt lat="50.225350772961974" lon="6.47036480717361">
        <ele>532.67999999999995</ele>
        <time>2017-06-06T11:15:53Z</time>
      </trkpt>
      <trkpt lat="50.225561326369643" lon="6.470575444400311">
        <ele>532.40999999999997</ele>
        <time>2017-06-06T11:16:12Z</time>
      </trkpt>
      <trkpt lat="50.225734077394009" lon="6.470740651711822">
        <ele>532.36000000000001</ele>
        <time>2017-06-06T11:16:27Z</time>
      </trkpt>
      <trkpt lat="50.225767269730568" lon="6.470774514600635">
        <ele>532.60000000000002</ele>
        <time>2017-06-06T11:16:30Z</time>
      </trkpt>
      <trkpt lat="50.225777914747596" lon="6.470790272578597">
        <ele>532.16999999999996</ele>
        <time>2017-06-06T11:16:31Z</time>
      </trkpt>
      <trkpt lat="50.225789984688163" lon="6.470804018899798">
        <ele>532.25999999999999</ele>
        <time>2017-06-06T11:16:32Z</time>
      </trkpt>
      <trkpt lat="50.226024175062776" lon="6.471034185960889">
        <ele>532.72000000000003</ele>
        <time>2017-06-06T11:16:53Z</time>
      </trkpt>
      <trkpt lat="50.226206732913852" lon="6.471210708841682">
        <ele>533.11000000000001</ele>
        <time>2017-06-06T11:17:07Z</time>
      </trkpt>
      <trkpt lat="50.226470343768597" lon="6.471469206735492">
        <ele>533.04999999999995</ele>
        <time>2017-06-06T11:17:29Z</time>
      </trkpt>
      <trkpt lat="50.226626079529524" lon="6.471639191731811">
        <ele>533.94000000000005</ele>
        <time>2017-06-06T11:17:43Z</time>
      </trkpt>
      <trkpt lat="50.226748622953892" lon="6.471899030730128">
        <ele>535.86000000000001</ele>
        <time>2017-06-06T11:18:00Z</time>
      </trkpt>
      <trkpt lat="50.226757675409317" lon="6.471909508109093">
        <ele>535.51999999999998</ele>
        <time>2017-06-06T11:18:01Z</time>
      </trkpt>
      <trkpt lat="50.226798160001636" lon="6.471956446766853">
        <ele>534.01999999999998</ele>
        <time>2017-06-06T11:18:05Z</time>
      </trkpt>
      <trkpt lat="50.226962864398956" lon="6.472173454239965">
        <ele>532.66999999999996</ele>
        <time>2017-06-06T11:18:21Z</time>
      </trkpt>
      <trkpt lat="50.227253129705787" lon="6.472468581050634">
        <ele>531.90999999999997</ele>
        <time>2017-06-06T11:18:32Z</time>
      </trkpt>
      <trkpt lat="50.227286070585251" lon="6.472506383433938">
        <ele>531.88</ele>
        <time>2017-06-06T11:18:33Z</time>
      </trkpt>
      <trkpt lat="50.227323453873396" lon="6.472544688731432">
        <ele>531.62</ele>
        <time>2017-06-06T11:18:34Z</time>
      </trkpt>
      <trkpt lat="50.227446332573891" lon="6.472652228549123">
        <ele>531.95000000000005</ele>
        <time>2017-06-06T11:18:37Z</time>
      </trkpt>
      <trkpt lat="50.227756211534142" lon="6.47296185605228">
        <ele>531.5</ele>
        <time>2017-06-06T11:18:45Z</time>
      </trkpt>
      <trkpt lat="50.22779711522162" lon="6.473004603758454">
        <ele>531.40999999999997</ele>
        <time>2017-06-06T11:18:46Z</time>
      </trkpt>
      <trkpt lat="50.22792661562562" lon="6.473130164667964">
        <ele>532.67999999999995</ele>
        <time>2017-06-06T11:18:49Z</time>
      </trkpt>
      <trkpt lat="50.227967603132129" lon="6.473170313984156">
        <ele>532.77999999999997</ele>
        <time>2017-06-06T11:18:50Z</time>
      </trkpt>
      <trkpt lat="50.228408155962825" lon="6.473642885684967">
        <ele>533.80999999999995</ele>
        <time>2017-06-06T11:19:03Z</time>
      </trkpt>
      <trkpt lat="50.228709988296032" lon="6.474028453230858">
        <ele>534.32000000000005</ele>
        <time>2017-06-06T11:19:16Z</time>
      </trkpt>
      <trkpt lat="50.228894725441933" lon="6.474251998588443">
        <ele>534.79999999999995</ele>
        <time>2017-06-06T11:19:28Z</time>
      </trkpt>
      <trkpt lat="50.229108212515712" lon="6.474499348551035">
        <ele>535.62</ele>
        <time>2017-06-06T11:19:48Z</time>
      </trkpt>
      <trkpt lat="50.229254979640245" lon="6.474653324112296">
        <ele>536.86000000000001</ele>
        <time>2017-06-06T11:20:03Z</time>
      </trkpt>
      <trkpt lat="50.229265876114368" lon="6.474656341597438">
        <ele>536.88999999999999</ele>
        <time>2017-06-06T11:20:04Z</time>
      </trkpt>
      <trkpt lat="50.229278113692999" lon="6.47465449757874">
        <ele>536.74000000000001</ele>
        <time>2017-06-06T11:20:05Z</time>
      </trkpt>
      <trkpt lat="50.229290351271629" lon="6.474648965522647">
        <ele>536.88</ele>
        <time>2017-06-06T11:20:06Z</time>
      </trkpt>
      <trkpt lat="50.229302169755101" lon="6.474641505628824">
        <ele>537.05999999999995</ele>
        <time>2017-06-06T11:20:07Z</time>
      </trkpt>
      <trkpt lat="50.229314574971795" lon="6.474631112068892">
        <ele>537.46000000000004</ele>
        <time>2017-06-06T11:20:08Z</time>
      </trkpt>
      <trkpt lat="50.229326728731394" lon="6.474618790671229">
        <ele>537.86000000000001</ele>
        <time>2017-06-06T11:20:09Z</time>
      </trkpt>
      <trkpt lat="50.229585142806172" lon="6.474308995530009">
        <ele>538.95000000000005</ele>
        <time>2017-06-06T11:20:34Z</time>
      </trkpt>
      <trkpt lat="50.229699304327369" lon="6.474168095737696">
        <ele>541.45000000000005</ele>
        <time>2017-06-06T11:20:46Z</time>
      </trkpt>
      <trkpt lat="50.229868702590466" lon="6.473965086042881">
        <ele>541.75999999999999</ele>
        <time>2017-06-06T11:21:03Z</time>
      </trkpt>
      <trkpt lat="50.23010054603219" lon="6.473658811300993">
        <ele>544.38</ele>
        <time>2017-06-06T11:21:26Z</time>
      </trkpt>
      <trkpt lat="50.230298107489944" lon="6.473419591784477">
        <ele>546.16999999999996</ele>
        <time>2017-06-06T11:21:46Z</time>
      </trkpt>
      <trkpt lat="50.230516036972404" lon="6.473155058920384">
        <ele>548.96000000000004</ele>
        <time>2017-06-06T11:22:07Z</time>
      </trkpt>
      <trkpt lat="50.230681663379073" lon="6.472960682585836">
        <ele>549.52999999999997</ele>
        <time>2017-06-06T11:22:24Z</time>
      </trkpt>
      <trkpt lat="50.230830190703273" lon="6.472763875499368">
        <ele>550.52999999999997</ele>
        <time>2017-06-06T11:22:39Z</time>
      </trkpt>
      <trkpt lat="50.230998834595084" lon="6.472530271857977">
        <ele>553.16999999999996</ele>
        <time>2017-06-06T11:22:57Z</time>
      </trkpt>
      <trkpt lat="50.231196228414774" lon="6.472405213862658">
        <ele>554.86000000000001</ele>
        <time>2017-06-06T11:23:15Z</time>
      </trkpt>
      <trkpt lat="50.231207376345992" lon="6.472416110336781">
        <ele>554.75999999999999</ele>
        <time>2017-06-06T11:23:16Z</time>
      </trkpt>
      <trkpt lat="50.231217686086893" lon="6.472425665706396">
        <ele>554.50999999999999</ele>
        <time>2017-06-06T11:23:17Z</time>
      </trkpt>
      <trkpt lat="50.231227241456509" lon="6.47243513725698">
        <ele>554.27999999999997</ele>
        <time>2017-06-06T11:23:18Z</time>
      </trkpt>
      <trkpt lat="50.231236545369029" lon="6.472446452826262">
        <ele>553.92999999999995</ele>
        <time>2017-06-06T11:23:19Z</time>
      </trkpt>
      <trkpt lat="50.231245430186391" lon="6.472459025681019">
        <ele>554.01999999999998</ele>
        <time>2017-06-06T11:23:20Z</time>
      </trkpt>
      <trkpt lat="50.231318101286888" lon="6.472621131688356">
        <ele>554</ele>
        <time>2017-06-06T11:23:30Z</time>
      </trkpt>
      <trkpt lat="50.231341319158673" lon="6.472672931849957">
        <ele>553.33000000000004</ele>
        <time>2017-06-06T11:23:33Z</time>
      </trkpt>
      <trkpt lat="50.231351796537638" lon="6.472691120579839">
        <ele>553.34000000000003</ele>
        <time>2017-06-06T11:23:34Z</time>
      </trkpt>
      <trkpt lat="50.231360932812095" lon="6.472708974033594">
        <ele>553.19000000000005</ele>
        <time>2017-06-06T11:23:35Z</time>
      </trkpt>
      <trkpt lat="50.231371158733964" lon="6.472726240754128">
        <ele>553.13</ele>
        <time>2017-06-06T11:23:36Z</time>
      </trkpt>
      <trkpt lat="50.231382139027119" lon="6.472743004560471">
        <ele>552.74000000000001</ele>
        <time>2017-06-06T11:23:37Z</time>
      </trkpt>
      <trkpt lat="50.231391945853829" lon="6.472761109471321">
        <ele>552.22000000000003</ele>
        <time>2017-06-06T11:23:38Z</time>
      </trkpt>
      <trkpt lat="50.231402507051826" lon="6.472775274887681">
        <ele>552.09000000000003</ele>
        <time>2017-06-06T11:23:39Z</time>
      </trkpt>
      <trkpt lat="50.231512393802404" lon="6.472956743091345">
        <ele>553.84000000000003</ele>
        <time>2017-06-06T11:23:51Z</time>
      </trkpt>
      <trkpt lat="50.231699561700225" lon="6.473250361159444">
        <ele>553.33000000000004</ele>
        <time>2017-06-06T11:24:10Z</time>
      </trkpt>
      <trkpt lat="50.231860242784023" lon="6.473436774685979">
        <ele>553.66999999999996</ele>
        <time>2017-06-06T11:24:26Z</time>
      </trkpt>
      <trkpt lat="50.232053529471159" lon="6.473615728318691">
        <ele>553.99000000000001</ele>
        <time>2017-06-06T11:24:44Z</time>
      </trkpt>
      <trkpt lat="50.232258634641767" lon="6.473763501271606">
        <ele>555.42999999999995</ele>
        <time>2017-06-06T11:25:02Z</time>
      </trkpt>
      <trkpt lat="50.232485951855779" lon="6.473940694704652">
        <ele>557.58000000000004</ele>
        <time>2017-06-06T11:25:24Z</time>
      </trkpt>
      <trkpt lat="50.232656020671129" lon="6.473923595622182">
        <ele>559.22000000000003</ele>
        <time>2017-06-06T11:25:40Z</time>
      </trkpt>
      <trkpt lat="50.232893312349916" lon="6.47387757897377">
        <ele>560.23000000000002</ele>
        <time>2017-06-06T11:26:00Z</time>
      </trkpt>
      <trkpt lat="50.233121635392308" lon="6.473903646692634">
        <ele>561.12</ele>
        <time>2017-06-06T11:26:19Z</time>
      </trkpt>
      <trkpt lat="50.233169496059418" lon="6.473907753825188">
        <ele>563.22000000000003</ele>
        <time>2017-06-06T11:26:23Z</time>
      </trkpt>
      <trkpt lat="50.233394047245383" lon="6.473968019708991">
        <ele>563.94000000000005</ele>
        <time>2017-06-06T11:26:42Z</time>
      </trkpt>
      <trkpt lat="50.233426569029689" lon="6.473970701918006">
        <ele>565.13</ele>
        <time>2017-06-06T11:26:44Z</time>
      </trkpt>
      <trkpt lat="50.23359571583569" lon="6.473956536501646">
        <ele>565.62</ele>
        <time>2017-06-06T11:26:58Z</time>
      </trkpt>
      <trkpt lat="50.233691772446036" lon="6.473960308358073">
        <ele>568.97000000000003</ele>
        <time>2017-06-06T11:27:06Z</time>
      </trkpt>
      <trkpt lat="50.233704764395952" lon="6.473959973081946">
        <ele>568.47000000000003</ele>
        <time>2017-06-06T11:27:07Z</time>
      </trkpt>
      <trkpt lat="50.23390986956656" lon="6.47410036996007">
        <ele>567.80999999999995</ele>
        <time>2017-06-06T11:27:26Z</time>
      </trkpt>
      <trkpt lat="50.234038615599275" lon="6.474313018843532">
        <ele>567.35000000000002</ele>
        <time>2017-06-06T11:27:42Z</time>
      </trkpt>
      <trkpt lat="50.234222682192922" lon="6.474584089592099">
        <ele>566.08000000000004</ele>
        <time>2017-06-06T11:28:03Z</time>
      </trkpt>
      <trkpt lat="50.234393170103431" lon="6.474793218076229">
        <ele>565.82000000000005</ele>
        <time>2017-06-06T11:28:20Z</time>
      </trkpt>
      <trkpt lat="50.234532225877047" lon="6.474980637431145">
        <ele>565.79999999999995</ele>
        <time>2017-06-06T11:28:36Z</time>
      </trkpt>
      <trkpt lat="50.234586037695408" lon="6.475091278553009">
        <ele>564.97000000000003</ele>
        <time>2017-06-06T11:28:46Z</time>
      </trkpt>
      <trkpt lat="50.234592743217945" lon="6.475106868892908">
        <ele>565.00999999999999</ele>
        <time>2017-06-06T11:28:47Z</time>
      </trkpt>
      <trkpt lat="50.234728446230292" lon="6.475329324603081">
        <ele>565.41999999999996</ele>
        <time>2017-06-06T11:29:03Z</time>
      </trkpt>
      <trkpt lat="50.234927600249648" lon="6.475572399795055">
        <ele>564.79999999999995</ele>
        <time>2017-06-06T11:29:23Z</time>
      </trkpt>
      <trkpt lat="50.235049724578857" lon="6.475777504965663">
        <ele>562.34000000000003</ele>
        <time>2017-06-06T11:29:38Z</time>
      </trkpt>
      <trkpt lat="50.235056933015585" lon="6.475791586562991">
        <ele>562.83000000000004</ele>
        <time>2017-06-06T11:29:39Z</time>
      </trkpt>
      <trkpt lat="50.235064057633281" lon="6.475804746150971">
        <ele>563.87</ele>
        <time>2017-06-06T11:29:40Z</time>
      </trkpt>
      <trkpt lat="50.235073361545801" lon="6.47581597790122">
        <ele>563.16999999999996</ele>
        <time>2017-06-06T11:29:41Z</time>
      </trkpt>
      <trkpt lat="50.235084341838956" lon="6.475825281813741">
        <ele>562.61000000000001</ele>
        <time>2017-06-06T11:29:42Z</time>
      </trkpt>
      <trkpt lat="50.235096579417586" lon="6.475831735879183">
        <ele>563.65999999999997</ele>
        <time>2017-06-06T11:29:43Z</time>
      </trkpt>
      <trkpt lat="50.235108230262995" lon="6.475838692858815">
        <ele>564.25</ele>
        <time>2017-06-06T11:29:44Z</time>
      </trkpt>
      <trkpt lat="50.235180482268333" lon="6.475897030904889">
        <ele>562.15999999999997</ele>
        <time>2017-06-06T11:29:50Z</time>
      </trkpt>
      <trkpt lat="50.235318196937442" lon="6.47613063454628">
        <ele>561.85000000000002</ele>
        <time>2017-06-06T11:30:07Z</time>
      </trkpt>
      <trkpt lat="50.235470328480005" lon="6.476356275379658">
        <ele>560.76999999999998</ele>
        <time>2017-06-06T11:30:25Z</time>
      </trkpt>
      <trkpt lat="50.235650958493352" lon="6.476613180711865">
        <ele>559.44000000000005</ele>
        <time>2017-06-06T11:30:47Z</time>
      </trkpt>
      <trkpt lat="50.235776854678988" lon="6.476802360266447">
        <ele>559.33000000000004</ele>
        <time>2017-06-06T11:31:03Z</time>
      </trkpt>
      <trkpt lat="50.235902415588498" lon="6.476976871490479">
        <ele>558.51999999999998</ele>
        <time>2017-06-06T11:31:19Z</time>
      </trkpt>
      <trkpt lat="50.236084889620543" lon="6.477134451270104">
        <ele>558.47000000000003</ele>
        <time>2017-06-06T11:31:35Z</time>
      </trkpt>
      <trkpt lat="50.236288150772452" lon="6.477373754605651">
        <ele>558.33000000000004</ele>
        <time>2017-06-06T11:31:54Z</time>
      </trkpt>
      <trkpt lat="50.236330730840564" lon="6.477420525625348">
        <ele>557.37</ele>
        <time>2017-06-06T11:32:10Z</time>
      </trkpt>
      <trkpt lat="50.236349925398827" lon="6.477435864508152">
        <ele>557.35000000000002</ele>
        <time>2017-06-06T11:32:12Z</time>
      </trkpt>
      <trkpt lat="50.236360486596823" lon="6.477446677163243">
        <ele>557.24000000000001</ele>
        <time>2017-06-06T11:32:13Z</time>
      </trkpt>
      <trkpt lat="50.236369287595153" lon="6.477457992732525">
        <ele>557.21000000000004</ele>
        <time>2017-06-06T11:32:14Z</time>
      </trkpt>
      <trkpt lat="50.2363789267838" lon="6.477469895035029">
        <ele>557.03999999999996</ele>
        <time>2017-06-06T11:32:15Z</time>
      </trkpt>
      <trkpt lat="50.236388817429543" lon="6.477482216432691">
        <ele>557.09000000000003</ele>
        <time>2017-06-06T11:32:16Z</time>
      </trkpt>
      <trkpt lat="50.236399378627539" lon="6.477493532001972">
        <ele>557.33000000000004</ele>
        <time>2017-06-06T11:32:17Z</time>
      </trkpt>
      <trkpt lat="50.236609010025859" lon="6.477707019075751">
        <ele>556.40999999999997</ele>
        <time>2017-06-06T11:32:37Z</time>
      </trkpt>
      <trkpt lat="50.236833980306983" lon="6.477960404008627">
        <ele>555.10000000000002</ele>
        <time>2017-06-06T11:32:59Z</time>
      </trkpt>
      <trkpt lat="50.237029530107975" lon="6.478165090084076">
        <ele>553.94000000000005</ele>
        <time>2017-06-06T11:33:17Z</time>
      </trkpt>
      <trkpt lat="50.237205130979419" lon="6.478450493887067">
        <ele>551.57000000000005</ele>
        <time>2017-06-06T11:33:37Z</time>
      </trkpt>
      <trkpt lat="50.237344102934003" lon="6.47866272367537">
        <ele>550.05999999999995</ele>
        <time>2017-06-06T11:33:52Z</time>
      </trkpt>
      <trkpt lat="50.237515093758702" lon="6.478964723646641">
        <ele>547.96000000000004</ele>
        <time>2017-06-06T11:34:11Z</time>
      </trkpt>
      <trkpt lat="50.23765817284584" lon="6.479221880435944">
        <ele>546.83000000000004</ele>
        <time>2017-06-06T11:34:27Z</time>
      </trkpt>
      <trkpt lat="50.237702513113618" lon="6.479323636740446">
        <ele>546.64999999999998</ele>
        <time>2017-06-06T11:34:37Z</time>
      </trkpt>
      <trkpt lat="50.237711314111948" lon="6.479338724166155">
        <ele>546.62</ele>
        <time>2017-06-06T11:34:38Z</time>
      </trkpt>
      <trkpt lat="50.237719360738993" lon="6.479353224858642">
        <ele>546.39999999999998</ele>
        <time>2017-06-06T11:34:39Z</time>
      </trkpt>
      <trkpt lat="50.237728329375386" lon="6.479366887360811">
        <ele>546.17999999999995</ele>
        <time>2017-06-06T11:34:40Z</time>
      </trkpt>
      <trkpt lat="50.237736292183399" lon="6.4793795440346">
        <ele>546.24000000000001</ele>
        <time>2017-06-06T11:34:41Z</time>
      </trkpt>
      <trkpt lat="50.237934608012438" lon="6.479703336954117">
        <ele>544.45000000000005</ele>
        <time>2017-06-06T11:35:05Z</time>
      </trkpt>
      <trkpt lat="50.238110963255167" lon="6.480014976114035">
        <ele>542.08000000000004</ele>
        <time>2017-06-06T11:35:26Z</time>
      </trkpt>
      <trkpt lat="50.238269129768014" lon="6.480308761820197">
        <ele>539.90999999999997</ele>
        <time>2017-06-06T11:35:45Z</time>
      </trkpt>
      <trkpt lat="50.238409610465169" lon="6.480585280805826">
        <ele>537.22000000000003</ele>
        <time>2017-06-06T11:36:03Z</time>
      </trkpt>
      <trkpt lat="50.238456381484866" lon="6.480665327981114">
        <ele>536.60000000000002</ele>
        <time>2017-06-06T11:36:18Z</time>
      </trkpt>
      <trkpt lat="50.238465936854482" lon="6.480650072917342">
        <ele>536.65999999999997</ele>
        <time>2017-06-06T11:36:19Z</time>
      </trkpt>
      <trkpt lat="50.238475324586034" lon="6.480636997148395">
        <ele>536.64999999999998</ele>
        <time>2017-06-06T11:36:20Z</time>
      </trkpt>
      <trkpt lat="50.238484963774681" lon="6.480626268312335">
        <ele>536.70000000000005</ele>
        <time>2017-06-06T11:36:21Z</time>
      </trkpt>
      <trkpt lat="50.238494770601392" lon="6.480618054047227">
        <ele>536.55999999999995</ele>
        <time>2017-06-06T11:36:22Z</time>
      </trkpt>
      <trkpt lat="50.238504409790039" lon="6.480608163401485">
        <ele>536.37</ele>
        <time>2017-06-06T11:36:23Z</time>
      </trkpt>
      <trkpt lat="50.238513797521591" lon="6.480600284412503">
        <ele>536.21000000000004</ele>
        <time>2017-06-06T11:36:24Z</time>
      </trkpt>
      <trkpt lat="50.238523688167334" lon="6.480592740699649">
        <ele>536.17999999999995</ele>
        <time>2017-06-06T11:36:25Z</time>
      </trkpt>
      <trkpt lat="50.238535925745964" lon="6.480584861710668">
        <ele>535.96000000000004</ele>
        <time>2017-06-06T11:36:26Z</time>
      </trkpt>
      <trkpt lat="50.2385513484478" lon="6.480580838397145">
        <ele>536.01999999999998</ele>
        <time>2017-06-06T11:36:27Z</time>
      </trkpt>
      <trkpt lat="50.238565346226096" lon="6.480579664930701">
        <ele>535.99000000000001</ele>
        <time>2017-06-06T11:36:28Z</time>
      </trkpt>
      <trkpt lat="50.238577583804727" lon="6.480579497292638">
        <ele>535.94000000000005</ele>
        <time>2017-06-06T11:36:29Z</time>
      </trkpt>
      <trkpt lat="50.238587893545628" lon="6.4805952552706">
        <ele>535.74000000000001</ele>
        <time>2017-06-06T11:36:42Z</time>
      </trkpt>
      <trkpt lat="50.238628629595041" lon="6.48058251477778">
        <ele>535.76999999999998</ele>
        <time>2017-06-06T11:36:53Z</time>
      </trkpt>
      <trkpt lat="50.238639945164323" lon="6.480577066540718">
        <ele>535.77999999999997</ele>
        <time>2017-06-06T11:36:54Z</time>
      </trkpt>
      <trkpt lat="50.238793669268489" lon="6.480570528656244">
        <ele>535.17999999999995</ele>
        <time>2017-06-06T11:37:07Z</time>
      </trkpt>
      <trkpt lat="50.23880498483777" lon="6.480569774284959">
        <ele>534.99000000000001</ele>
        <time>2017-06-06T11:37:08Z</time>
      </trkpt>
      <trkpt lat="50.238817138597369" lon="6.480569439008832">
        <ele>534.78999999999996</ele>
        <time>2017-06-06T11:37:09Z</time>
      </trkpt>
      <trkpt lat="50.23883038200438" lon="6.480570109561086">
        <ele>534.67999999999995</ele>
        <time>2017-06-06T11:37:10Z</time>
      </trkpt>
      <trkpt lat="50.238842703402042" lon="6.480571115389466">
        <ele>534.71000000000004</ele>
        <time>2017-06-06T11:37:11Z</time>
      </trkpt>
      <trkpt lat="50.238855527713895" lon="6.480573546141386">
        <ele>534.55999999999995</ele>
        <time>2017-06-06T11:37:12Z</time>
      </trkpt>
      <trkpt lat="50.238971700891852" lon="6.480617467314005">
        <ele>533.67999999999995</ele>
        <time>2017-06-06T11:37:22Z</time>
      </trkpt>
      <trkpt lat="50.238983938470483" lon="6.480621071532369">
        <ele>533.58000000000004</ele>
        <time>2017-06-06T11:37:23Z</time>
      </trkpt>
      <trkpt lat="50.239192480221391" lon="6.480704890564084">
        <ele>531.76999999999998</ele>
        <time>2017-06-06T11:37:41Z</time>
      </trkpt>
      <trkpt lat="50.239376798272133" lon="6.480806227773428">
        <ele>530.75999999999999</ele>
        <time>2017-06-06T11:37:58Z</time>
      </trkpt>
      <trkpt lat="50.239542173221707" lon="6.480897339060903">
        <ele>529.12</ele>
        <time>2017-06-06T11:38:13Z</time>
      </trkpt>
      <trkpt lat="50.23973872885108" lon="6.481066402047873">
        <ele>527.42999999999995</ele>
        <time>2017-06-06T11:38:32Z</time>
      </trkpt>
      <trkpt lat="50.23981056176126" lon="6.481201350688934">
        <ele>526.30999999999995</ele>
        <time>2017-06-06T11:38:42Z</time>
      </trkpt>
      <trkpt lat="50.239817770197988" lon="6.481219623237848">
        <ele>526.57000000000005</ele>
        <time>2017-06-06T11:38:43Z</time>
      </trkpt>
      <trkpt lat="50.239830426871777" lon="6.481234207749367">
        <ele>526.38</ele>
        <time>2017-06-06T11:38:44Z</time>
      </trkpt>
      <trkpt lat="50.239841239526868" lon="6.481248205527663">
        <ele>526.29999999999995</ele>
        <time>2017-06-06T11:38:45Z</time>
      </trkpt>
      <trkpt lat="50.239851633086801" lon="6.48126270622015">
        <ele>526.00999999999999</ele>
        <time>2017-06-06T11:38:46Z</time>
      </trkpt>
      <trkpt lat="50.239860769361258" lon="6.481278045102954">
        <ele>525.97000000000003</ele>
        <time>2017-06-06T11:38:47Z</time>
      </trkpt>
      <trkpt lat="50.239869151264429" lon="6.481293300166726">
        <ele>526.02999999999997</ele>
        <time>2017-06-06T11:38:48Z</time>
      </trkpt>
      <trkpt lat="50.239876694977283" lon="6.481307214125991">
        <ele>526</ele>
        <time>2017-06-06T11:38:49Z</time>
      </trkpt>
      <trkpt lat="50.240002339705825" lon="6.481564873829484">
        <ele>524.70000000000005</ele>
        <time>2017-06-06T11:39:07Z</time>
      </trkpt>
      <trkpt lat="50.240067383274436" lon="6.481746761128306">
        <ele>522.36000000000001</ele>
        <time>2017-06-06T11:39:19Z</time>
      </trkpt>
      <trkpt lat="50.240099905058742" lon="6.481818091124296">
        <ele>521.50999999999999</ele>
        <time>2017-06-06T11:39:24Z</time>
      </trkpt>
      <trkpt lat="50.240107700228691" lon="6.481830077245832">
        <ele>521.24000000000001</ele>
        <time>2017-06-06T11:39:25Z</time>
      </trkpt>
      <trkpt lat="50.240114908665419" lon="6.481843236833811">
        <ele>521.28999999999996</ele>
        <time>2017-06-06T11:39:26Z</time>
      </trkpt>
      <trkpt lat="50.240123122930527" lon="6.481857988983393">
        <ele>521.11000000000001</ele>
        <time>2017-06-06T11:39:27Z</time>
      </trkpt>
      <trkpt lat="50.240129996091127" lon="6.481873579323292">
        <ele>521.02999999999997</ele>
        <time>2017-06-06T11:39:28Z</time>
      </trkpt>
      <trkpt lat="50.240135528147221" lon="6.481889002025127">
        <ele>520.92999999999995</ele>
        <time>2017-06-06T11:39:29Z</time>
      </trkpt>
      <trkpt lat="50.240142233669758" lon="6.48190476000309">
        <ele>520.72000000000003</ele>
        <time>2017-06-06T11:39:30Z</time>
      </trkpt>
      <trkpt lat="50.240147765725851" lon="6.481919679790735">
        <ele>520.73000000000002</ele>
        <time>2017-06-06T11:39:31Z</time>
      </trkpt>
      <trkpt lat="50.240212809294462" lon="6.482071643695235">
        <ele>519.58000000000004</ele>
        <time>2017-06-06T11:39:41Z</time>
      </trkpt>
      <trkpt lat="50.240221777930856" lon="6.482087904587388">
        <ele>519.51999999999998</ele>
        <time>2017-06-06T11:39:42Z</time>
      </trkpt>
      <trkpt lat="50.240230578929186" lon="6.482103997841477">
        <ele>519.47000000000003</ele>
        <time>2017-06-06T11:39:43Z</time>
      </trkpt>
      <trkpt lat="50.240239379927516" lon="6.482119420543313">
        <ele>519.46000000000004</ele>
        <time>2017-06-06T11:39:44Z</time>
      </trkpt>
      <trkpt lat="50.240248432382941" lon="6.482136016711593">
        <ele>519.38</ele>
        <time>2017-06-06T11:39:45Z</time>
      </trkpt>
      <trkpt lat="50.240362761542201" lon="6.482403818517923">
        <ele>518.53999999999996</ele>
        <time>2017-06-06T11:40:01Z</time>
      </trkpt>
      <trkpt lat="50.240447418764234" lon="6.48259224370122">
        <ele>517.87</ele>
        <time>2017-06-06T11:40:15Z</time>
      </trkpt>
      <trkpt lat="50.240561664104462" lon="6.482828697189689">
        <ele>516.33000000000004</ele>
        <time>2017-06-06T11:40:32Z</time>
      </trkpt>
      <trkpt lat="50.240721004083753" lon="6.483007734641433">
        <ele>515.04999999999995</ele>
        <time>2017-06-06T11:40:49Z</time>
      </trkpt>
      <trkpt lat="50.240816725417972" lon="6.483088620007038">
        <ele>513.79999999999995</ele>
        <time>2017-06-06T11:40:58Z</time>
      </trkpt>
      <trkpt lat="50.240972544997931" lon="6.483237482607365">
        <ele>512.23000000000002</ele>
        <time>2017-06-06T11:41:12Z</time>
      </trkpt>
      <trkpt lat="50.241227019578218" lon="6.483428589999676">
        <ele>510.94999999999999</ele>
        <time>2017-06-06T11:41:30Z</time>
      </trkpt>
      <trkpt lat="50.241299774497747" lon="6.483509056270123">
        <ele>509.91000000000003</ele>
        <time>2017-06-06T11:41:37Z</time>
      </trkpt>
      <trkpt lat="50.241311006247997" lon="6.483522551134229">
        <ele>509.83999999999997</ele>
        <time>2017-06-06T11:41:38Z</time>
      </trkpt>
      <trkpt lat="50.241323076188564" lon="6.48353872820735">
        <ele>509.51999999999998</ele>
        <time>2017-06-06T11:41:39Z</time>
      </trkpt>
      <trkpt lat="50.241334475576878" lon="6.483553564175963">
        <ele>509.19999999999999</ele>
        <time>2017-06-06T11:41:40Z</time>
      </trkpt>
      <trkpt lat="50.241344282403588" lon="6.483567394316196">
        <ele>509.12</ele>
        <time>2017-06-06T11:41:41Z</time>
      </trkpt>
      <trkpt lat="50.241352915763855" lon="6.483579967170954">
        <ele>509.23000000000002</ele>
        <time>2017-06-06T11:41:42Z</time>
      </trkpt>
      <trkpt lat="50.241400776430964" lon="6.483668815344572">
        <ele>509.89999999999998</ele>
        <time>2017-06-06T11:41:48Z</time>
      </trkpt>
      <trkpt lat="50.241443356499076" lon="6.483711143955588">
        <ele>509.11000000000001</ele>
        <time>2017-06-06T11:41:54Z</time>
      </trkpt>
      <trkpt lat="50.24160479195416" lon="6.483881128951907">
        <ele>508.27999999999997</ele>
        <time>2017-06-06T11:42:09Z</time>
      </trkpt>
      <trkpt lat="50.241790283471346" lon="6.484161587432027">
        <ele>507.81999999999999</ele>
        <time>2017-06-06T11:42:27Z</time>
      </trkpt>
      <trkpt lat="50.24184376001358" lon="6.484234007075429">
        <ele>507.33999999999997</ele>
        <time>2017-06-06T11:42:32Z</time>
      </trkpt>
      <trkpt lat="50.241852728649974" lon="6.484249178320169">
        <ele>507.43000000000001</ele>
        <time>2017-06-06T11:42:33Z</time>
      </trkpt>
      <trkpt lat="50.24186379276216" lon="6.484263259917498">
        <ele>507.18000000000001</ele>
        <time>2017-06-06T11:42:34Z</time>
      </trkpt>
      <trkpt lat="50.241873767226934" lon="6.484278179705143">
        <ele>506.81999999999999</ele>
        <time>2017-06-06T11:42:35Z</time>
      </trkpt>
      <trkpt lat="50.241883574053645" lon="6.484293015673757">
        <ele>506.75</ele>
        <time>2017-06-06T11:42:36Z</time>
      </trkpt>
      <trkpt lat="50.241894135251641" lon="6.484306007623673">
        <ele>506.75</ele>
        <time>2017-06-06T11:42:37Z</time>
      </trkpt>
      <trkpt lat="50.24204408749938" lon="6.484498539939523">
        <ele>505.92000000000002</ele>
        <time>2017-06-06T11:42:51Z</time>
      </trkpt>
      <trkpt lat="50.242211977019906" lon="6.484703896567226">
        <ele>505.94</ele>
        <time>2017-06-06T11:43:07Z</time>
      </trkpt>
      <trkpt lat="50.242330161854625" lon="6.484837085008621">
        <ele>505.81999999999999</ele>
        <time>2017-06-06T11:43:20Z</time>
      </trkpt>
      <trkpt lat="50.242472821846604" lon="6.484872875735164">
        <ele>505.43000000000001</ele>
        <time>2017-06-06T11:56:31Z</time>
      </trkpt>
      <trkpt lat="50.242579858750105" lon="6.484880754724145">
        <ele>505.81</ele>
        <time>2017-06-06T11:56:41Z</time>
      </trkpt>
      <trkpt lat="50.242800386622548" lon="6.484950743615627">
        <ele>505.07999999999998</ele>
        <time>2017-06-06T11:56:59Z</time>
      </trkpt>
      <trkpt lat="50.242962157353759" lon="6.485031880438328">
        <ele>508.00999999999999</ele>
        <time>2017-06-06T11:57:14Z</time>
      </trkpt>
      <trkpt lat="50.242984620854259" lon="6.485060965642333">
        <ele>508.38999999999999</ele>
        <time>2017-06-06T11:57:17Z</time>
      </trkpt>
      <trkpt lat="50.243043461814523" lon="6.485173618420959">
        <ele>508.5</ele>
        <time>2017-06-06T11:57:24Z</time>
      </trkpt>
      <trkpt lat="50.243123592808843" lon="6.485348213464022">
        <ele>510.11000000000001</ele>
        <time>2017-06-06T11:57:37Z</time>
      </trkpt>
      <trkpt lat="50.243217553943396" lon="6.485536471009255">
        <ele>511.38</ele>
        <time>2017-06-06T11:57:50Z</time>
      </trkpt>
      <trkpt lat="50.243324507027864" lon="6.485688602551818">
        <ele>511.88999999999999</ele>
        <time>2017-06-06T11:58:03Z</time>
      </trkpt>
      <trkpt lat="50.243339845910668" lon="6.48570578545332">
        <ele>512.22000000000003</ele>
        <time>2017-06-06T11:58:05Z</time>
      </trkpt>
      <trkpt lat="50.243584178388119" lon="6.485962271690369">
        <ele>513.25999999999999</ele>
        <time>2017-06-06T11:58:22Z</time>
      </trkpt>
      <trkpt lat="50.24383538402617" lon="6.486218422651291">
        <ele>514.46000000000004</ele>
        <time>2017-06-06T11:58:33Z</time>
      </trkpt>
      <trkpt lat="50.244057755917311" lon="6.4862110465765">
        <ele>515.91999999999996</ele>
        <time>2017-06-06T11:58:44Z</time>
      </trkpt>
      <trkpt lat="50.244121123105288" lon="6.486177435144782">
        <ele>516.37</ele>
        <time>2017-06-06T11:58:47Z</time>
      </trkpt>
      <trkpt lat="50.244528148323298" lon="6.486229822039604">
        <ele>517.74000000000001</ele>
        <time>2017-06-06T11:58:59Z</time>
      </trkpt>
      <trkpt lat="50.24485856294632" lon="6.486363261938095">
        <ele>519.45000000000005</ele>
        <time>2017-06-06T11:59:10Z</time>
      </trkpt>
      <trkpt lat="50.245185373350978" lon="6.486480021849275">
        <ele>521.66999999999996</ele>
        <time>2017-06-06T11:59:23Z</time>
      </trkpt>
      <trkpt lat="50.245344126597047" lon="6.486593848094344">
        <ele>522.59000000000003</ele>
        <time>2017-06-06T11:59:35Z</time>
      </trkpt>
      <trkpt lat="50.245520481839776" lon="6.48667867295444">
        <ele>523.76999999999998</ele>
        <time>2017-06-06T11:59:49Z</time>
      </trkpt>
      <trkpt lat="50.245654759928584" lon="6.486700801178813">
        <ele>525.11000000000001</ele>
        <time>2017-06-06T12:00:01Z</time>
      </trkpt>
      <trkpt lat="50.245795156806707" lon="6.486733909696341">
        <ele>526.62</ele>
        <time>2017-06-06T12:00:15Z</time>
      </trkpt>
      <trkpt lat="50.245984336361289" lon="6.486803311854601">
        <ele>528.50999999999999</ele>
        <time>2017-06-06T12:00:31Z</time>
      </trkpt>
      <trkpt lat="50.246130935847759" lon="6.486857039853931">
        <ele>529.5</ele>
        <time>2017-06-06T12:00:44Z</time>
      </trkpt>
      <trkpt lat="50.246333358809352" lon="6.486989976838231">
        <ele>530.55999999999995</ele>
        <time>2017-06-06T12:01:02Z</time>
      </trkpt>
      <trkpt lat="50.246370239183307" lon="6.487012440338731">
        <ele>530.84000000000003</ele>
        <time>2017-06-06T12:01:05Z</time>
      </trkpt>
      <trkpt lat="50.246383734047413" lon="6.487019313499332">
        <ele>530.83000000000004</ele>
        <time>2017-06-06T12:01:06Z</time>
      </trkpt>
      <trkpt lat="50.246399911120534" lon="6.487027863040566">
        <ele>531</ele>
        <time>2017-06-06T12:01:07Z</time>
      </trkpt>
      <trkpt lat="50.24641533382237" lon="6.487039932981134">
        <ele>531.01999999999998</ele>
        <time>2017-06-06T12:01:08Z</time>
      </trkpt>
      <trkpt lat="50.246429834514856" lon="6.487047141417861">
        <ele>530.96000000000004</ele>
        <time>2017-06-06T12:01:09Z</time>
      </trkpt>
      <trkpt lat="50.24659319780767" lon="6.487162141129375">
        <ele>532.14999999999998</ele>
        <time>2017-06-06T12:01:21Z</time>
      </trkpt>
      <trkpt lat="50.246633095666766" lon="6.487230034545064">
        <ele>533.08000000000004</ele>
        <time>2017-06-06T12:01:26Z</time>
      </trkpt>
      <trkpt lat="50.246756561100483" lon="6.48739448748529">
        <ele>533.78999999999996</ele>
        <time>2017-06-06T12:01:38Z</time>
      </trkpt>
      <trkpt lat="50.246897879987955" lon="6.487517114728689">
        <ele>535.32000000000005</ele>
        <time>2017-06-06T12:01:52Z</time>
      </trkpt>
      <trkpt lat="50.247039366513491" lon="6.487584840506315">
        <ele>536.74000000000001</ele>
        <time>2017-06-06T12:02:04Z</time>
      </trkpt>
      <trkpt lat="50.24704908952117" lon="6.487587606534362">
        <ele>536.79999999999995</ele>
        <time>2017-06-06T12:02:05Z</time>
      </trkpt>
      <trkpt lat="50.247067445889115" lon="6.487593306228519">
        <ele>537.01999999999998</ele>
        <time>2017-06-06T12:02:06Z</time>
      </trkpt>
      <trkpt lat="50.247230306267738" lon="6.487634377554059">
        <ele>537.92999999999995</ele>
        <time>2017-06-06T12:02:20Z</time>
      </trkpt>
      <trkpt lat="50.247359974309802" lon="6.487640580162406">
        <ele>539.51999999999998</ele>
        <time>2017-06-06T12:02:37Z</time>
      </trkpt>
      <trkpt lat="50.247571785002947" lon="6.487686512991786">
        <ele>541.47000000000003</ele>
        <time>2017-06-06T12:02:57Z</time>
      </trkpt>
      <trkpt lat="50.247766245156527" lon="6.487788856029511">
        <ele>544.50999999999999</ele>
        <time>2017-06-06T12:03:17Z</time>
      </trkpt>
      <trkpt lat="50.24803270585835" lon="6.487842919304967">
        <ele>547.72000000000003</ele>
        <time>2017-06-06T12:03:40Z</time>
      </trkpt>
      <trkpt lat="50.248206127434969" lon="6.48788457736373">
        <ele>548.59000000000003</ele>
        <time>2017-06-06T12:03:53Z</time>
      </trkpt>
      <trkpt lat="50.248387763276696" lon="6.487899161875248">
        <ele>549.34000000000003</ele>
        <time>2017-06-06T12:04:07Z</time>
      </trkpt>
      <trkpt lat="50.248508378863335" lon="6.487905867397785">
        <ele>550.52999999999997</ele>
        <time>2017-06-06T12:04:20Z</time>
      </trkpt>
      <trkpt lat="50.248575182631612" lon="6.487906873226166">
        <ele>553.72000000000003</ele>
        <time>2017-06-06T12:04:26Z</time>
      </trkpt>
      <trkpt lat="50.248600244522095" lon="6.487913075834513">
        <ele>554.78999999999996</ele>
        <time>2017-06-06T12:04:28Z</time>
      </trkpt>
      <trkpt lat="50.248895706608891" lon="6.487898658961058">
        <ele>554.85000000000002</ele>
        <time>2017-06-06T12:04:49Z</time>
      </trkpt>
      <trkpt lat="50.249060327187181" lon="6.487862868234515">
        <ele>557.82000000000005</ele>
        <time>2017-06-06T12:05:01Z</time>
      </trkpt>
      <trkpt lat="50.249184546992183" lon="6.487915758043528">
        <ele>559.29999999999995</ele>
        <time>2017-06-06T12:05:13Z</time>
      </trkpt>
      <trkpt lat="50.249396525323391" lon="6.487938053905964">
        <ele>561.44000000000005</ele>
        <time>2017-06-06T12:05:29Z</time>
      </trkpt>
      <trkpt lat="50.249569779261947" lon="6.487939143553376">
        <ele>561.22000000000003</ele>
        <time>2017-06-06T12:05:43Z</time>
      </trkpt>
      <trkpt lat="50.249762311577797" lon="6.487933527678251">
        <ele>562.88</ele>
        <time>2017-06-06T12:06:00Z</time>
      </trkpt>
      <trkpt lat="50.249883094802499" lon="6.487936042249203">
        <ele>563.71000000000004</ele>
        <time>2017-06-06T12:06:10Z</time>
      </trkpt>
      <trkpt lat="50.249902876093984" lon="6.487942580133677">
        <ele>563.50999999999999</ele>
        <time>2017-06-06T12:06:11Z</time>
      </trkpt>
      <trkpt lat="50.24991880171001" lon="6.487947525456548">
        <ele>563.78999999999996</ele>
        <time>2017-06-06T12:06:12Z</time>
      </trkpt>
      <trkpt lat="50.249934811145067" lon="6.487958338111639">
        <ele>564.02999999999997</ele>
        <time>2017-06-06T12:06:13Z</time>
      </trkpt>
      <trkpt lat="50.249960208311677" lon="6.487976359203458">
        <ele>563.94000000000005</ele>
        <time>2017-06-06T12:06:14Z</time>
      </trkpt>
      <trkpt lat="50.249973619356751" lon="6.487986333668232">
        <ele>563.87</ele>
        <time>2017-06-06T12:06:15Z</time>
      </trkpt>
      <trkpt lat="50.250027179718018" lon="6.488028327003121">
        <ele>563.89999999999998</ele>
        <time>2017-06-06T12:06:18Z</time>
      </trkpt>
      <trkpt lat="50.250045033171773" lon="6.488040061667562">
        <ele>563.92999999999995</ele>
        <time>2017-06-06T12:06:19Z</time>
      </trkpt>
      <trkpt lat="50.250056264922023" lon="6.488047437742353">
        <ele>563.90999999999997</ele>
        <time>2017-06-06T12:06:20Z</time>
      </trkpt>
      <trkpt lat="50.250074453651905" lon="6.488055232912302">
        <ele>563.99000000000001</ele>
        <time>2017-06-06T12:06:21Z</time>
      </trkpt>
      <trkpt lat="50.25008887052536" lon="6.488064704462886">
        <ele>564.00999999999999</ele>
        <time>2017-06-06T12:06:22Z</time>
      </trkpt>
      <trkpt lat="50.250169923529029" lon="6.48811717517674">
        <ele>564.13</ele>
        <time>2017-06-06T12:06:30Z</time>
      </trkpt>
      <trkpt lat="50.250397240743041" lon="6.488341307267547">
        <ele>565.25999999999999</ele>
        <time>2017-06-06T12:06:41Z</time>
      </trkpt>
      <trkpt lat="50.250638974830508" lon="6.488588573411107">
        <ele>567.44000000000005</ele>
        <time>2017-06-06T12:06:52Z</time>
      </trkpt>
      <trkpt lat="50.250675017014146" lon="6.488643055781722">
        <ele>567.92999999999995</ele>
        <time>2017-06-06T12:06:54Z</time>
      </trkpt>
      <trkpt lat="50.250703096389771" lon="6.488671889528632">
        <ele>567.79999999999995</ele>
        <time>2017-06-06T12:06:55Z</time>
      </trkpt>
      <trkpt lat="50.250727403908968" lon="6.488709608092904">
        <ele>567.64999999999998</ele>
        <time>2017-06-06T12:06:56Z</time>
      </trkpt>
      <trkpt lat="50.25074852630496" lon="6.488735759630799">
        <ele>567.98000000000002</ele>
        <time>2017-06-06T12:06:57Z</time>
      </trkpt>
      <trkpt lat="50.250770570710301" lon="6.488759312778711">
        <ele>568.00999999999999</ele>
        <time>2017-06-06T12:06:58Z</time>
      </trkpt>
      <trkpt lat="50.250799991190434" lon="6.488790744915605">
        <ele>567.96000000000004</ele>
        <time>2017-06-06T12:06:59Z</time>
      </trkpt>
      <trkpt lat="50.251076007261872" lon="6.489210175350308">
        <ele>569.84000000000003</ele>
        <time>2017-06-06T12:07:12Z</time>
      </trkpt>
      <trkpt lat="50.251285554841161" lon="6.489644190296531">
        <ele>571.98000000000002</ele>
        <time>2017-06-06T12:07:23Z</time>
      </trkpt>
      <trkpt lat="50.251539861783385" lon="6.490206448361278">
        <ele>574.26999999999998</ele>
        <time>2017-06-06T12:07:36Z</time>
      </trkpt>
      <trkpt lat="50.251824092119932" lon="6.490657813847065">
        <ele>575.98000000000002</ele>
        <time>2017-06-06T12:07:49Z</time>
      </trkpt>
      <trkpt lat="50.251848986372352" lon="6.490685977041721">
        <ele>576.00999999999999</ele>
        <time>2017-06-06T12:07:51Z</time>
      </trkpt>
      <trkpt lat="50.251861894503236" lon="6.490698549896479">
        <ele>576.09000000000003</ele>
        <time>2017-06-06T12:07:52Z</time>
      </trkpt>
      <trkpt lat="50.251871952787042" lon="6.49072403088212">
        <ele>576.08000000000004</ele>
        <time>2017-06-06T12:07:53Z</time>
      </trkpt>
      <trkpt lat="50.251880334690213" lon="6.49075579829514">
        <ele>576.25999999999999</ele>
        <time>2017-06-06T12:07:54Z</time>
      </trkpt>
      <trkpt lat="50.251894416287541" lon="6.490778429433703">
        <ele>576.13</ele>
        <time>2017-06-06T12:07:55Z</time>
      </trkpt>
      <trkpt lat="50.251908414065838" lon="6.490800138562918">
        <ele>576.24000000000001</ele>
        <time>2017-06-06T12:07:56Z</time>
      </trkpt>
      <trkpt lat="50.251922076568007" lon="6.490817992016673">
        <ele>576.38</ele>
        <time>2017-06-06T12:07:57Z</time>
      </trkpt>
      <trkpt lat="50.251934733241796" lon="6.490835174918175">
        <ele>576.48000000000002</ele>
        <time>2017-06-06T12:07:58Z</time>
      </trkpt>
      <trkpt lat="50.252067083492875" lon="6.490990156307817">
        <ele>577.40999999999997</ele>
        <time>2017-06-06T12:08:11Z</time>
      </trkpt>
      <trkpt lat="50.252181747928262" lon="6.491114543750882">
        <ele>578.33000000000004</ele>
        <time>2017-06-06T12:08:23Z</time>
      </trkpt>
      <trkpt lat="50.252298340201378" lon="6.491281595081091">
        <ele>578.70000000000005</ele>
        <time>2017-06-06T12:08:36Z</time>
      </trkpt>
      <trkpt lat="50.252504702657461" lon="6.491618547588587">
        <ele>580.34000000000003</ele>
        <time>2017-06-06T12:08:47Z</time>
      </trkpt>
      <trkpt lat="50.252699246630073" lon="6.491984836757183">
        <ele>582.17999999999995</ele>
        <time>2017-06-06T12:08:56Z</time>
      </trkpt>
      <trkpt lat="50.252720871940255" lon="6.492039989680052">
        <ele>582.40999999999997</ele>
        <time>2017-06-06T12:08:57Z</time>
      </trkpt>
      <trkpt lat="50.252766804769635" lon="6.492150882259011">
        <ele>582.70000000000005</ele>
        <time>2017-06-06T12:08:59Z</time>
      </trkpt>
      <trkpt lat="50.252897897735238" lon="6.492434777319431">
        <ele>583.70000000000005</ele>
        <time>2017-06-06T12:09:04Z</time>
      </trkpt>
      <trkpt lat="50.252925306558609" lon="6.492490516975522">
        <ele>583.74000000000001</ele>
        <time>2017-06-06T12:09:05Z</time>
      </trkpt>
      <trkpt lat="50.253089759498835" lon="6.492826463654637">
        <ele>585</ele>
        <time>2017-06-06T12:09:12Z</time>
      </trkpt>
      <trkpt lat="50.253102499991655" lon="6.492866696789861">
        <ele>585.00999999999999</ele>
        <time>2017-06-06T12:09:13Z</time>
      </trkpt>
      <trkpt lat="50.253121862187982" lon="6.492901649326086">
        <ele>585.23000000000002</ele>
        <time>2017-06-06T12:09:14Z</time>
      </trkpt>
      <trkpt lat="50.253137284889817" lon="6.492940373718739">
        <ele>585.37</ele>
        <time>2017-06-06T12:09:15Z</time>
      </trkpt>
      <trkpt lat="50.25314717553556" lon="6.492975829169154">
        <ele>585.38999999999999</ele>
        <time>2017-06-06T12:09:16Z</time>
      </trkpt>
      <trkpt lat="50.253260331228375" lon="6.493274224922061">
        <ele>586.47000000000003</ele>
        <time>2017-06-06T12:09:27Z</time>
      </trkpt>
      <trkpt lat="50.253441045060754" lon="6.493621319532394">
        <ele>587.03999999999996</ele>
        <time>2017-06-06T12:09:42Z</time>
      </trkpt>
      <trkpt lat="50.253535676747561" lon="6.493806391954422">
        <ele>587.90999999999997</ele>
        <time>2017-06-06T12:09:53Z</time>
      </trkpt>
      <trkpt lat="50.253582866862416" lon="6.49388593621552">
        <ele>588.40999999999997</ele>
        <time>2017-06-06T12:09:58Z</time>
      </trkpt>
      <trkpt lat="50.253604492172599" lon="6.493923990055919">
        <ele>588.48000000000002</ele>
        <time>2017-06-06T12:10:00Z</time>
      </trkpt>
      <trkpt lat="50.253618909046054" lon="6.493939915671945">
        <ele>588.5</ele>
        <time>2017-06-06T12:10:01Z</time>
      </trkpt>
      <trkpt lat="50.253821415826678" lon="6.494181649759412">
        <ele>588.87</ele>
        <time>2017-06-06T12:10:15Z</time>
      </trkpt>
      <trkpt lat="50.253877742215991" lon="6.49423336610198">
        <ele>589.47000000000003</ele>
        <time>2017-06-06T12:10:20Z</time>
      </trkpt>
      <trkpt lat="50.253885285928845" lon="6.494249375537038">
        <ele>589.45000000000005</ele>
        <time>2017-06-06T12:10:21Z</time>
      </trkpt>
      <trkpt lat="50.253899367526174" lon="6.49426706135273">
        <ele>589.61000000000001</ele>
        <time>2017-06-06T12:10:22Z</time>
      </trkpt>
      <trkpt lat="50.253909174352884" lon="6.494279718026519">
        <ele>589.57000000000005</ele>
        <time>2017-06-06T12:10:23Z</time>
      </trkpt>
      <trkpt lat="50.253919567912817" lon="6.494291871786118">
        <ele>589.46000000000004</ele>
        <time>2017-06-06T12:10:24Z</time>
      </trkpt>
      <trkpt lat="50.25392803363502" lon="6.494307378306985">
        <ele>589.41999999999996</ele>
        <time>2017-06-06T12:10:25Z</time>
      </trkpt>
      <trkpt lat="50.253933817148209" lon="6.494322214275599">
        <ele>589.44000000000005</ele>
        <time>2017-06-06T12:10:26Z</time>
      </trkpt>
      <trkpt lat="50.25393976829946" lon="6.494339145720005">
        <ele>589.63999999999999</ele>
        <time>2017-06-06T12:10:27Z</time>
      </trkpt>
      <trkpt lat="50.254045128822327" lon="6.494595715776086">
        <ele>590.11000000000001</ele>
        <time>2017-06-06T12:10:42Z</time>
      </trkpt>
      <trkpt lat="50.254127942025661" lon="6.494783638045192">
        <ele>590.83000000000004</ele>
        <time>2017-06-06T12:10:54Z</time>
      </trkpt>
      <trkpt lat="50.254134647548199" lon="6.494797971099615">
        <ele>591.07000000000005</ele>
        <time>2017-06-06T12:10:55Z</time>
      </trkpt>
      <trkpt lat="50.254139425233006" lon="6.49481238797307">
        <ele>591.17999999999995</ele>
        <time>2017-06-06T12:10:56Z</time>
      </trkpt>
      <trkpt lat="50.254143616184592" lon="6.494828732684255">
        <ele>591.24000000000001</ele>
        <time>2017-06-06T12:10:57Z</time>
      </trkpt>
      <trkpt lat="50.254167839884758" lon="6.494870893657208">
        <ele>591.89999999999998</ele>
        <time>2017-06-06T12:11:00Z</time>
      </trkpt>
      <trkpt lat="50.254184268414974" lon="6.494928980246186">
        <ele>591.75</ele>
        <time>2017-06-06T12:11:03Z</time>
      </trkpt>
      <trkpt lat="50.254196673631668" lon="6.494943397119641">
        <ele>591.67999999999995</ele>
        <time>2017-06-06T12:11:04Z</time>
      </trkpt>
      <trkpt lat="50.254204720258713" lon="6.494960747659206">
        <ele>591.75999999999999</ele>
        <time>2017-06-06T12:11:05Z</time>
      </trkpt>
      <trkpt lat="50.254210839048028" lon="6.494981534779072">
        <ele>592.00999999999999</ele>
        <time>2017-06-06T12:11:06Z</time>
      </trkpt>
      <trkpt lat="50.254215365275741" lon="6.494999807327986">
        <ele>592</ele>
        <time>2017-06-06T12:11:07Z</time>
      </trkpt>
      <trkpt lat="50.254253838211298" lon="6.495103407651186">
        <ele>592.28999999999996</ele>
        <time>2017-06-06T12:11:13Z</time>
      </trkpt>
      <trkpt lat="50.254260459914804" lon="6.495118159800768">
        <ele>592.32000000000005</ele>
        <time>2017-06-06T12:11:14Z</time>
      </trkpt>
      <trkpt lat="50.254289461299777" lon="6.495179263874888">
        <ele>592.70000000000005</ele>
        <time>2017-06-06T12:11:18Z</time>
      </trkpt>
      <trkpt lat="50.254300190135837" lon="6.495191166177392">
        <ele>592.73000000000002</ele>
        <time>2017-06-06T12:11:19Z</time>
      </trkpt>
      <trkpt lat="50.254306141287088" lon="6.495208600535989">
        <ele>592.77999999999997</ele>
        <time>2017-06-06T12:11:20Z</time>
      </trkpt>
      <trkpt lat="50.254321228712797" lon="6.49523994885385">
        <ele>592.82000000000005</ele>
        <time>2017-06-06T12:11:22Z</time>
      </trkpt>
      <trkpt lat="50.254330616444349" lon="6.495263082906604">
        <ele>592.98000000000002</ele>
        <time>2017-06-06T12:11:23Z</time>
      </trkpt>
      <trkpt lat="50.254339668899775" lon="6.495282528921962">
        <ele>592.84000000000003</ele>
        <time>2017-06-06T12:11:24Z</time>
      </trkpt>
      <trkpt lat="50.254345284774899" lon="6.495297281071544">
        <ele>592.88</ele>
        <time>2017-06-06T12:11:25Z</time>
      </trkpt>
      <trkpt lat="50.254350816830993" lon="6.495312536135316">
        <ele>593.01999999999998</ele>
        <time>2017-06-06T12:11:26Z</time>
      </trkpt>
      <trkpt lat="50.25435701943934" lon="6.495329383760691">
        <ele>593.04999999999995</ele>
        <time>2017-06-06T12:11:27Z</time>
      </trkpt>
      <trkpt lat="50.25436095893383" lon="6.495350673794746">
        <ele>593.08000000000004</ele>
        <time>2017-06-06T12:11:28Z</time>
      </trkpt>
      <trkpt lat="50.254459278658032" lon="6.495563993230462">
        <ele>593.89999999999998</ele>
        <time>2017-06-06T12:11:43Z</time>
      </trkpt>
      <trkpt lat="50.2545265853405" lon="6.495677568018436">
        <ele>594.32000000000005</ele>
        <time>2017-06-06T12:11:51Z</time>
      </trkpt>
      <trkpt lat="50.254530441015959" lon="6.495699360966682">
        <ele>594.20000000000005</ele>
        <time>2017-06-06T12:11:52Z</time>
      </trkpt>
      <trkpt lat="50.254681315273046" lon="6.495920391753316">
        <ele>595.61000000000001</ele>
        <time>2017-06-06T12:12:08Z</time>
      </trkpt>
      <trkpt lat="50.254828250035644" lon="6.49614728987217">
        <ele>597.22000000000003</ele>
        <time>2017-06-06T12:12:25Z</time>
      </trkpt>
      <trkpt lat="50.254983985796571" lon="6.496456079185009">
        <ele>598.19000000000005</ele>
        <time>2017-06-06T12:12:46Z</time>
      </trkpt>
      <trkpt lat="50.255095297470689" lon="6.496690018102527">
        <ele>597.86000000000001</ele>
        <time>2017-06-06T12:13:01Z</time>
      </trkpt>
      <trkpt lat="50.255102086812258" lon="6.496708961203694">
        <ele>597.84000000000003</ele>
        <time>2017-06-06T12:13:02Z</time>
      </trkpt>
      <trkpt lat="50.255110049620271" lon="6.496725557371974">
        <ele>597.65999999999997</ele>
        <time>2017-06-06T12:13:03Z</time>
      </trkpt>
      <trkpt lat="50.255224546417594" lon="6.497021773830056">
        <ele>599.87</ele>
        <time>2017-06-06T12:13:20Z</time>
      </trkpt>
      <trkpt lat="50.255355890840292" lon="6.497345734387636">
        <ele>599.58000000000004</ele>
        <time>2017-06-06T12:13:40Z</time>
      </trkpt>
      <trkpt lat="50.255433339625597" lon="6.497566010802984">
        <ele>602.74000000000001</ele>
        <time>2017-06-06T12:13:53Z</time>
      </trkpt>
      <trkpt lat="50.255518835037947" lon="6.497815540060401">
        <ele>603.02999999999997</ele>
        <time>2017-06-06T12:14:08Z</time>
      </trkpt>
      <trkpt lat="50.255643809214234" lon="6.498092142865062">
        <ele>603.75</ele>
        <time>2017-06-06T12:14:25Z</time>
      </trkpt>
      <trkpt lat="50.25578043423593" lon="6.49830412119627">
        <ele>605.13999999999999</ele>
        <time>2017-06-06T12:14:39Z</time>
      </trkpt>
      <trkpt lat="50.25592309422791" lon="6.498503275215626">
        <ele>605.33000000000004</ele>
        <time>2017-06-06T12:14:53Z</time>
      </trkpt>
      <trkpt lat="50.256082601845264" lon="6.49872774258256">
        <ele>606.48000000000002</ele>
        <time>2017-06-06T12:15:09Z</time>
      </trkpt>
      <trkpt lat="50.256209503859282" lon="6.498949024826288">
        <ele>609.82000000000005</ele>
        <time>2017-06-06T12:15:24Z</time>
      </trkpt>
      <trkpt lat="50.256244204938412" lon="6.499008452519774">
        <ele>609.01999999999998</ele>
        <time>2017-06-06T12:15:28Z</time>
      </trkpt>
      <trkpt lat="50.256347386166453" lon="6.499230237677693">
        <ele>609.21000000000004</ele>
        <time>2017-06-06T12:15:42Z</time>
      </trkpt>
      <trkpt lat="50.256537823006511" lon="6.499566100537777">
        <ele>611.09000000000003</ele>
        <time>2017-06-06T12:16:06Z</time>
      </trkpt>
      <trkpt lat="50.256628766655922" lon="6.499702725559473">
        <ele>611.29999999999995</ele>
        <time>2017-06-06T12:16:16Z</time>
      </trkpt>
      <trkpt lat="50.256638908758759" lon="6.49971186183393">
        <ele>611.46000000000004</ele>
        <time>2017-06-06T12:16:17Z</time>
      </trkpt>
      <trkpt lat="50.256647290661931" lon="6.499725021421909">
        <ele>611.46000000000004</ele>
        <time>2017-06-06T12:16:18Z</time>
      </trkpt>
      <trkpt lat="50.256655169650912" lon="6.499739103019238">
        <ele>611.65999999999997</ele>
        <time>2017-06-06T12:16:19Z</time>
      </trkpt>
      <trkpt lat="50.25666631758213" lon="6.499749245122075">
        <ele>611.85000000000002</ele>
        <time>2017-06-06T12:16:20Z</time>
      </trkpt>
      <trkpt lat="50.256676124408841" lon="6.499762404710054">
        <ele>612.00999999999999</ele>
        <time>2017-06-06T12:16:21Z</time>
      </trkpt>
      <trkpt lat="50.25668484158814" lon="6.499776570126414">
        <ele>612.27999999999997</ele>
        <time>2017-06-06T12:16:22Z</time>
      </trkpt>
      <trkpt lat="50.256693055853248" lon="6.499790148809552">
        <ele>612.47000000000003</ele>
        <time>2017-06-06T12:16:23Z</time>
      </trkpt>
      <trkpt lat="50.256831273436546" lon="6.500031882897019">
        <ele>613.28999999999996</ele>
        <time>2017-06-06T12:16:40Z</time>
      </trkpt>
      <trkpt lat="50.256839403882623" lon="6.500044958665967">
        <ele>613.47000000000003</ele>
        <time>2017-06-06T12:16:41Z</time>
      </trkpt>
      <trkpt lat="50.256847953423858" lon="6.500058118253946">
        <ele>613.59000000000003</ele>
        <time>2017-06-06T12:16:42Z</time>
      </trkpt>
      <trkpt lat="50.25685541331768" lon="6.500074882060289">
        <ele>613.62</ele>
        <time>2017-06-06T12:16:43Z</time>
      </trkpt>
      <trkpt lat="50.256978794932365" lon="6.500336062163115">
        <ele>614.86000000000001</ele>
        <time>2017-06-06T12:17:01Z</time>
      </trkpt>
      <trkpt lat="50.257052471861243" lon="6.500472854822874">
        <ele>615.41999999999996</ele>
        <time>2017-06-06T12:17:08Z</time>
      </trkpt>
      <trkpt lat="50.257138889282942" lon="6.500818692147732">
        <ele>616.57000000000005</ele>
        <time>2017-06-06T12:17:20Z</time>
      </trkpt>
      <trkpt lat="50.257184989750385" lon="6.501213982701302">
        <ele>617.08000000000004</ele>
        <time>2017-06-06T12:17:30Z</time>
      </trkpt>
      <trkpt lat="50.257192282006145" lon="6.50128229521215">
        <ele>617.12</ele>
        <time>2017-06-06T12:17:32Z</time>
      </trkpt>
      <trkpt lat="50.257197646424174" lon="6.501322779804468">
        <ele>617.02999999999997</ele>
        <time>2017-06-06T12:17:33Z</time>
      </trkpt>
      <trkpt lat="50.257259756326675" lon="6.501734834164381">
        <ele>618.13999999999999</ele>
        <time>2017-06-06T12:17:44Z</time>
      </trkpt>
      <trkpt lat="50.257381880655885" lon="6.502185529097915">
        <ele>617.92999999999995</ele>
        <time>2017-06-06T12:17:54Z</time>
      </trkpt>
      <trkpt lat="50.257392944768071" lon="6.502226935699582">
        <ele>617.99000000000001</ele>
        <time>2017-06-06T12:17:55Z</time>
      </trkpt>
      <trkpt lat="50.257403757423162" lon="6.502276808023453">
        <ele>617.72000000000003</ele>
        <time>2017-06-06T12:17:56Z</time>
      </trkpt>
      <trkpt lat="50.257412306964397" lon="6.502326345071197">
        <ele>617.82000000000005</ele>
        <time>2017-06-06T12:17:57Z</time>
      </trkpt>
      <trkpt lat="50.257417503744364" lon="6.502374121919274">
        <ele>617.92999999999995</ele>
        <time>2017-06-06T12:17:58Z</time>
      </trkpt>
      <trkpt lat="50.257419683039188" lon="6.502422988414764">
        <ele>617.90999999999997</ele>
        <time>2017-06-06T12:17:59Z</time>
      </trkpt>
      <trkpt lat="50.25742026977241" lon="6.502468502148986">
        <ele>617.64999999999998</ele>
        <time>2017-06-06T12:18:00Z</time>
      </trkpt>
      <trkpt lat="50.25743443518877" lon="6.502791121602058">
        <ele>617.86000000000001</ele>
        <time>2017-06-06T12:18:06Z</time>
      </trkpt>
      <trkpt lat="50.257436279207468" lon="6.502843424677849">
        <ele>617.88999999999999</ele>
        <time>2017-06-06T12:18:07Z</time>
      </trkpt>
      <trkpt lat="50.257437117397785" lon="6.502889106050134">
        <ele>617.97000000000003</ele>
        <time>2017-06-06T12:18:08Z</time>
      </trkpt>
      <trkpt lat="50.257440553978086" lon="6.503000417724252">
        <ele>618.19000000000005</ele>
        <time>2017-06-06T12:18:12Z</time>
      </trkpt>
      <trkpt lat="50.257465448230505" lon="6.503324462100864">
        <ele>617.44000000000005</ele>
        <time>2017-06-06T12:18:34Z</time>
      </trkpt>
      <trkpt lat="50.257500987499952" lon="6.503376932814717">
        <ele>617.09000000000003</ele>
        <time>2017-06-06T12:18:54Z</time>
      </trkpt>
      <trkpt lat="50.257531413808465" lon="6.503445077687502">
        <ele>616.97000000000003</ele>
        <time>2017-06-06T12:19:20Z</time>
      </trkpt>
      <trkpt lat="50.257538622245193" lon="6.503713130950928">
        <ele>616.53999999999996</ele>
        <time>2017-06-06T12:19:35Z</time>
      </trkpt>
      <trkpt lat="50.257539376616478" lon="6.503743892535567">
        <ele>616.53999999999996</ele>
        <time>2017-06-06T12:19:36Z</time>
      </trkpt>
      <trkpt lat="50.25754046626389" lon="6.503781778737903">
        <ele>616.44000000000005</ele>
        <time>2017-06-06T12:19:37Z</time>
      </trkpt>
      <trkpt lat="50.257516577839851" lon="6.50425803847611">
        <ele>615.85000000000002</ele>
        <time>2017-06-06T12:19:48Z</time>
      </trkpt>
      <trkpt lat="50.257549099624157" lon="6.504844017326832">
        <ele>617.69000000000005</ele>
        <time>2017-06-06T12:19:59Z</time>
      </trkpt>
      <trkpt lat="50.257555553689599" lon="6.504915598779917">
        <ele>617.79999999999995</ele>
        <time>2017-06-06T12:20:00Z</time>
      </trkpt>
      <trkpt lat="50.257582711055875" lon="6.505133612081409">
        <ele>617.76999999999998</ele>
        <time>2017-06-06T12:20:03Z</time>
      </trkpt>
      <trkpt lat="50.257595451548696" lon="6.505212318152189">
        <ele>617.85000000000002</ele>
        <time>2017-06-06T12:20:04Z</time>
      </trkpt>
      <trkpt lat="50.257637444883585" lon="6.506024524569511">
        <ele>617.04999999999995</ele>
        <time>2017-06-06T12:20:14Z</time>
      </trkpt>
      <trkpt lat="50.257650855928659" lon="6.506101554259658">
        <ele>616.75999999999999</ele>
        <time>2017-06-06T12:20:15Z</time>
      </trkpt>
      <trkpt lat="50.257668793201447" lon="6.50617741048336">
        <ele>617.27999999999997</ele>
        <time>2017-06-06T12:20:16Z</time>
      </trkpt>
      <trkpt lat="50.257774908095598" lon="6.506502628326416">
        <ele>616.63999999999999</ele>
        <time>2017-06-06T12:20:20Z</time>
      </trkpt>
      <trkpt lat="50.257803993299603" lon="6.506561804562807">
        <ele>616.70000000000005</ele>
        <time>2017-06-06T12:20:21Z</time>
      </trkpt>
      <trkpt lat="50.257940534502268" lon="6.507106795907021">
        <ele>617.29999999999995</ele>
        <time>2017-06-06T12:20:31Z</time>
      </trkpt>
      <trkpt lat="50.258030723780394" lon="6.507406532764435">
        <ele>617.13999999999999</ele>
        <time>2017-06-06T12:20:37Z</time>
      </trkpt>
      <trkpt lat="50.258202636614442" lon="6.50796820409596">
        <ele>618.44000000000005</ele>
        <time>2017-06-06T12:20:46Z</time>
      </trkpt>
      <trkpt lat="50.258223591372371" lon="6.5080542024225">
        <ele>618.39999999999998</ele>
        <time>2017-06-06T12:20:47Z</time>
      </trkpt>
      <trkpt lat="50.258501200005412" lon="6.508808489888907">
        <ele>617.20000000000005</ele>
        <time>2017-06-06T12:20:57Z</time>
      </trkpt>
      <trkpt lat="50.258615780621767" lon="6.509048128500581">
        <ele>617.78999999999996</ele>
        <time>2017-06-06T12:21:00Z</time>
      </trkpt>
      <trkpt lat="50.258659115061164" lon="6.509115854278207">
        <ele>617.73000000000002</ele>
        <time>2017-06-06T12:21:01Z</time>
      </trkpt>
      <trkpt lat="50.258711418136954" lon="6.509182574227452">
        <ele>617.78999999999996</ele>
        <time>2017-06-06T12:21:02Z</time>
      </trkpt>
      <trkpt lat="50.258992882445455" lon="6.509558502584696">
        <ele>618.08000000000004</ele>
        <time>2017-06-06T12:21:11Z</time>
      </trkpt>
      <trkpt lat="50.259144930168986" lon="6.509807277470827">
        <ele>618.04999999999995</ele>
        <time>2017-06-06T12:21:21Z</time>
      </trkpt>
      <trkpt lat="50.259385155513883" lon="6.510176500305533">
        <ele>618.65999999999997</ele>
        <time>2017-06-06T12:21:46Z</time>
      </trkpt>
      <trkpt lat="50.259716408327222" lon="6.510645719245076">
        <ele>617.87</ele>
        <time>2017-06-06T12:22:01Z</time>
      </trkpt>
      <trkpt lat="50.260037267580628" lon="6.511134970933199">
        <ele>619.30999999999995</ele>
        <time>2017-06-06T12:22:17Z</time>
      </trkpt>
      <trkpt lat="50.26023181155324" lon="6.511392630636692">
        <ele>618.29999999999995</ele>
        <time>2017-06-06T12:22:38Z</time>
      </trkpt>
      <trkpt lat="50.260243713855743" lon="6.51139254681766">
        <ele>618.29999999999995</ele>
        <time>2017-06-06T12:22:39Z</time>
      </trkpt>
      <trkpt lat="50.260255532339215" lon="6.511391289532185">
        <ele>618.97000000000003</ele>
        <time>2017-06-06T12:22:40Z</time>
      </trkpt>
      <trkpt lat="50.260409591719508" lon="6.511359354481101">
        <ele>618.17999999999995</ele>
        <time>2017-06-06T12:22:54Z</time>
      </trkpt>
      <trkpt lat="50.260626683011651" lon="6.511313337832689">
        <ele>618.86000000000001</ele>
        <time>2017-06-06T12:23:08Z</time>
      </trkpt>
      <trkpt lat="50.260847629979253" lon="6.511231111362577">
        <ele>618.86000000000001</ele>
        <time>2017-06-06T12:23:18Z</time>
      </trkpt>
      <trkpt lat="50.261085005477071" lon="6.511126169934869">
        <ele>618.13999999999999</ele>
        <time>2017-06-06T12:23:26Z</time>
      </trkpt>
      <trkpt lat="50.261366721242666" lon="6.510969679802656">
        <ele>618.13</ele>
        <time>2017-06-06T12:23:36Z</time>
      </trkpt>
      <trkpt lat="50.261658998206258" lon="6.51086675003171">
        <ele>617.78999999999996</ele>
        <time>2017-06-06T12:23:48Z</time>
      </trkpt>
      <trkpt lat="50.262015396729112" lon="6.510934475809336">
        <ele>618.5</ele>
        <time>2017-06-06T12:24:01Z</time>
      </trkpt>
      <trkpt lat="50.262381937354803" lon="6.511147627606988">
        <ele>621.14999999999998</ele>
        <time>2017-06-06T12:24:12Z</time>
      </trkpt>
      <trkpt lat="50.262695169076324" lon="6.511329850181937">
        <ele>623.85000000000002</ele>
        <time>2017-06-06T12:24:21Z</time>
      </trkpt>
      <trkpt lat="50.263091381639242" lon="6.511541828513145">
        <ele>625.99000000000001</ele>
        <time>2017-06-06T12:24:34Z</time>
      </trkpt>
      <trkpt lat="50.263258013874292" lon="6.511633275076747">
        <ele>626.67999999999995</ele>
        <time>2017-06-06T12:24:46Z</time>
      </trkpt>
      <trkpt lat="50.263378629460931" lon="6.51169303804636">
        <ele>626.75999999999999</ele>
        <time>2017-06-06T12:24:57Z</time>
      </trkpt>
      <trkpt lat="50.26350611820817" lon="6.511750118806958">
        <ele>627.44000000000005</ele>
        <time>2017-06-06T12:25:10Z</time>
      </trkpt>
      <trkpt lat="50.263708792626858" lon="6.51180250570178">
        <ele>628.52999999999997</ele>
        <time>2017-06-06T12:25:34Z</time>
      </trkpt>
      <trkpt lat="50.263919765129685" lon="6.511885402724147">
        <ele>628.37</ele>
        <time>2017-06-06T12:25:55Z</time>
      </trkpt>
      <trkpt lat="50.264133671298623" lon="6.512024207040668">
        <ele>626.97000000000003</ele>
        <time>2017-06-06T12:26:15Z</time>
      </trkpt>
      <trkpt lat="50.264297872781754" lon="6.512126885354519">
        <ele>627.44000000000005</ele>
        <time>2017-06-06T12:26:23Z</time>
      </trkpt>
      <trkpt lat="50.264320503920317" lon="6.512135015800595">
        <ele>627.10000000000002</ele>
        <time>2017-06-06T12:26:24Z</time>
      </trkpt>
      <trkpt lat="50.264410609379411" lon="6.51215530000627">
        <ele>626.50999999999999</ele>
        <time>2017-06-06T12:26:30Z</time>
      </trkpt>
      <trkpt lat="50.264535415917635" lon="6.512170974165201">
        <ele>625.57000000000005</ele>
        <time>2017-06-06T12:26:42Z</time>
      </trkpt>
      <trkpt lat="50.264667011797428" lon="6.512182457372546">
        <ele>624.03999999999996</ele>
        <time>2017-06-06T12:26:55Z</time>
      </trkpt>
      <trkpt lat="50.264746220782399" lon="6.512212883681059">
        <ele>623.38</ele>
        <time>2017-06-06T12:27:03Z</time>
      </trkpt>
      <trkpt lat="50.264909164980054" lon="6.512229396030307">
        <ele>621.30999999999995</ele>
        <time>2017-06-06T12:27:21Z</time>
      </trkpt>
      <trkpt lat="50.265202028676867" lon="6.512221852317452">
        <ele>618.41999999999996</ele>
        <time>2017-06-06T12:27:40Z</time>
      </trkpt>
      <trkpt lat="50.265540238469839" lon="6.512140044942498">
        <ele>617.10000000000002</ele>
        <time>2017-06-06T12:28:06Z</time>
      </trkpt>
      <trkpt lat="50.265794796869159" lon="6.512072067707777">
        <ele>615.92999999999995</ele>
        <time>2017-06-06T12:28:23Z</time>
      </trkpt>
      <trkpt lat="50.266006020829082" lon="6.512020770460367">
        <ele>615.13999999999999</ele>
        <time>2017-06-06T12:28:39Z</time>
      </trkpt>
      <trkpt lat="50.266256220638752" lon="6.512005515396595">
        <ele>613.24000000000001</ele>
        <time>2017-06-06T12:28:55Z</time>
      </trkpt>
      <trkpt lat="50.266337357461452" lon="6.511995792388916">
        <ele>612.34000000000003</ele>
        <time>2017-06-06T12:29:01Z</time>
      </trkpt>
      <trkpt lat="50.26635286398232" lon="6.511998558416963">
        <ele>612.21000000000004</ele>
        <time>2017-06-06T12:29:02Z</time>
      </trkpt>
      <trkpt lat="50.266543887555599" lon="6.512006018310785">
        <ele>611.24000000000001</ele>
        <time>2017-06-06T12:29:17Z</time>
      </trkpt>
      <trkpt lat="50.266776820644736" lon="6.512047089636326">
        <ele>608.96000000000004</ele>
        <time>2017-06-06T12:29:33Z</time>
      </trkpt>
      <trkpt lat="50.267025260254741" lon="6.512112468481064">
        <ele>608.32000000000005</ele>
        <time>2017-06-06T12:29:45Z</time>
      </trkpt>
      <trkpt lat="50.267036408185959" lon="6.512117413803935">
        <ele>608.38</ele>
        <time>2017-06-06T12:29:46Z</time>
      </trkpt>
      <trkpt lat="50.267049483954906" lon="6.512119760736823">
        <ele>608.24000000000001</ele>
        <time>2017-06-06T12:29:47Z</time>
      </trkpt>
      <trkpt lat="50.267059374600649" lon="6.51212939992547">
        <ele>607.91999999999996</ele>
        <time>2017-06-06T12:29:48Z</time>
      </trkpt>
      <trkpt lat="50.267085526138544" lon="6.512142475694418">
        <ele>608.33000000000004</ele>
        <time>2017-06-06T12:29:50Z</time>
      </trkpt>
      <trkpt lat="50.267270598560572" lon="6.512188073247671">
        <ele>607.33000000000004</ele>
        <time>2017-06-06T12:30:05Z</time>
      </trkpt>
      <trkpt lat="50.267385011538863" lon="6.51221833191812">
        <ele>605.27999999999997</ele>
        <time>2017-06-06T12:30:18Z</time>
      </trkpt>
      <trkpt lat="50.267595062032342" lon="6.512285303324461">
        <ele>603.46000000000004</ele>
        <time>2017-06-06T12:30:38Z</time>
      </trkpt>
      <trkpt lat="50.267802765592933" lon="6.512327464297414">
        <ele>601.01999999999998</ele>
        <time>2017-06-06T12:31:00Z</time>
      </trkpt>
      <trkpt lat="50.267959842458367" lon="6.51238739490509">
        <ele>600.16999999999996</ele>
        <time>2017-06-06T12:31:17Z</time>
      </trkpt>
      <trkpt lat="50.268018348142505" lon="6.512401141226292">
        <ele>599.22000000000003</ele>
        <time>2017-06-06T12:31:20Z</time>
      </trkpt>
      <trkpt lat="50.268220100551844" lon="6.512397788465023">
        <ele>598.52999999999997</ele>
        <time>2017-06-06T12:31:26Z</time>
      </trkpt>
      <trkpt lat="50.268562501296401" lon="6.512542208656669">
        <ele>598.83000000000004</ele>
        <time>2017-06-06T12:31:37Z</time>
      </trkpt>
      <trkpt lat="50.268792668357491" lon="6.51260775513947">
        <ele>600.60000000000002</ele>
        <time>2017-06-06T12:31:47Z</time>
      </trkpt>
      <trkpt lat="50.268836170434952" lon="6.512607000768185">
        <ele>600.79999999999995</ele>
        <time>2017-06-06T12:31:50Z</time>
      </trkpt>
      <trkpt lat="50.268845139071345" lon="6.512609599158168">
        <ele>600.75999999999999</ele>
        <time>2017-06-06T12:31:51Z</time>
      </trkpt>
      <trkpt lat="50.268989810720086" lon="6.51268252171576">
        <ele>600.55999999999995</ele>
        <time>2017-06-06T12:32:03Z</time>
      </trkpt>
      <trkpt lat="50.269113108515739" lon="6.51275041513145">
        <ele>599.67999999999995</ele>
        <time>2017-06-06T12:32:17Z</time>
      </trkpt>
      <trkpt lat="50.269213356077671" lon="6.512817218899727">
        <ele>599.85000000000002</ele>
        <time>2017-06-06T12:32:27Z</time>
      </trkpt>
      <trkpt lat="50.26922601275146" lon="6.512825768440962">
        <ele>599.89999999999998</ele>
        <time>2017-06-06T12:32:28Z</time>
      </trkpt>
      <trkpt lat="50.269397171214223" lon="6.512966584414244">
        <ele>599.66999999999996</ele>
        <time>2017-06-06T12:32:43Z</time>
      </trkpt>
      <trkpt lat="50.269543267786503" lon="6.513070268556476">
        <ele>598.74000000000001</ele>
        <time>2017-06-06T12:32:56Z</time>
      </trkpt>
      <trkpt lat="50.269629685208201" lon="6.513142520561814">
        <ele>598.05999999999995</ele>
        <time>2017-06-06T12:33:03Z</time>
      </trkpt>
      <trkpt lat="50.269641755148768" lon="6.513151237741113">
        <ele>597.91999999999996</ele>
        <time>2017-06-06T12:33:04Z</time>
      </trkpt>
      <trkpt lat="50.26965357363224" lon="6.513156937435269">
        <ele>597.87</ele>
        <time>2017-06-06T12:33:05Z</time>
      </trkpt>
      <trkpt lat="50.269673941656947" lon="6.513168504461646">
        <ele>597.71000000000004</ele>
        <time>2017-06-06T12:33:07Z</time>
      </trkpt>
      <trkpt lat="50.26968383230269" lon="6.51318334043026">
        <ele>597.75</ele>
        <time>2017-06-06T12:33:08Z</time>
      </trkpt>
      <trkpt lat="50.269860439002514" lon="6.513272020965815">
        <ele>597.17999999999995</ele>
        <time>2017-06-06T12:33:22Z</time>
      </trkpt>
      <trkpt lat="50.269926907494664" lon="6.513309571892023">
        <ele>597.80999999999995</ele>
        <time>2017-06-06T12:33:29Z</time>
      </trkpt>
      <trkpt lat="50.269933864474297" lon="6.513322228565812">
        <ele>597.85000000000002</ele>
        <time>2017-06-06T12:33:30Z</time>
      </trkpt>
      <trkpt lat="50.269944341853261" lon="6.51332943700254">
        <ele>597.88</ele>
        <time>2017-06-06T12:33:31Z</time>
      </trkpt>
      <trkpt lat="50.269958339631557" lon="6.513335388153791">
        <ele>597.91999999999996</ele>
        <time>2017-06-06T12:33:32Z</time>
      </trkpt>
      <trkpt lat="50.269968481734395" lon="6.513344356790185">
        <ele>598.02999999999997</ele>
        <time>2017-06-06T12:33:33Z</time>
      </trkpt>
      <trkpt lat="50.270094545558095" lon="6.513510821387172">
        <ele>598.90999999999997</ele>
        <time>2017-06-06T12:33:48Z</time>
      </trkpt>
      <trkpt lat="50.270103849470615" lon="6.513520712032914">
        <ele>599.15999999999997</ele>
        <time>2017-06-06T12:33:49Z</time>
      </trkpt>
      <trkpt lat="50.270114243030548" lon="6.513528674840927">
        <ele>599.23000000000002</ele>
        <time>2017-06-06T12:33:50Z</time>
      </trkpt>
      <trkpt lat="50.270172832533717" lon="6.513574775308371">
        <ele>600.62</ele>
        <time>2017-06-06T12:33:59Z</time>
      </trkpt>
      <trkpt lat="50.270444992929697" lon="6.513759009540081">
        <ele>601.83000000000004</ele>
        <time>2017-06-06T12:34:15Z</time>
      </trkpt>
      <trkpt lat="50.270681194961071" lon="6.513879876583815">
        <ele>602.87</ele>
        <time>2017-06-06T12:34:24Z</time>
      </trkpt>
      <trkpt lat="50.271000880748034" lon="6.514005856588483">
        <ele>603.26999999999998</ele>
        <time>2017-06-06T12:34:32Z</time>
      </trkpt>
      <trkpt lat="50.271046478301287" lon="6.514027481898665">
        <ele>603.27999999999997</ele>
        <time>2017-06-06T12:34:33Z</time>
      </trkpt>
      <trkpt lat="50.271700853481889" lon="6.514258235692978">
        <ele>603.92999999999995</ele>
        <time>2017-06-06T12:34:47Z</time>
      </trkpt>
      <trkpt lat="50.27174930088222" lon="6.514269299805164">
        <ele>604.03999999999996</ele>
        <time>2017-06-06T12:34:48Z</time>
      </trkpt>
      <trkpt lat="50.272182980552316" lon="6.514369715005159">
        <ele>605.79999999999995</ele>
        <time>2017-06-06T12:34:58Z</time>
      </trkpt>
      <trkpt lat="50.272516664117575" lon="6.514551602303982">
        <ele>607.09000000000003</ele>
        <time>2017-06-06T12:35:09Z</time>
      </trkpt>
      <trkpt lat="50.272542396560311" lon="6.514552775770426">
        <ele>606.94000000000005</ele>
        <time>2017-06-06T12:35:10Z</time>
      </trkpt>
      <trkpt lat="50.2726811170578" lon="6.514638606458902">
        <ele>606.08000000000004</ele>
        <time>2017-06-06T12:35:21Z</time>
      </trkpt>
      <trkpt lat="50.272865435108542" lon="6.514724437147379">
        <ele>606.25999999999999</ele>
        <time>2017-06-06T12:35:34Z</time>
      </trkpt>
      <trkpt lat="50.272877337411046" lon="6.514731394127011">
        <ele>606.15999999999997</ele>
        <time>2017-06-06T12:35:35Z</time>
      </trkpt>
      <trkpt lat="50.273004071787" lon="6.514834156259894">
        <ele>605.63</ele>
        <time>2017-06-06T12:35:46Z</time>
      </trkpt>
      <trkpt lat="50.273192916065454" lon="6.514971787109971">
        <ele>605.59000000000003</ele>
        <time>2017-06-06T12:36:00Z</time>
      </trkpt>
      <trkpt lat="50.273332810029387" lon="6.515083853155375">
        <ele>604.95000000000005</ele>
        <time>2017-06-06T12:36:12Z</time>
      </trkpt>
      <trkpt lat="50.273583177477121" lon="6.515383087098599">
        <ele>604.72000000000003</ele>
        <time>2017-06-06T12:36:22Z</time>
      </trkpt>
      <trkpt lat="50.273625925183296" lon="6.515412423759699">
        <ele>604.79999999999995</ele>
        <time>2017-06-06T12:36:23Z</time>
      </trkpt>
      <trkpt lat="50.273663476109505" lon="6.515453411266208">
        <ele>604.88999999999999</ele>
        <time>2017-06-06T12:36:24Z</time>
      </trkpt>
      <trkpt lat="50.273748971521854" lon="6.515548126772046">
        <ele>604.96000000000004</ele>
        <time>2017-06-06T12:36:26Z</time>
      </trkpt>
      <trkpt lat="50.273838322609663" lon="6.515636472031474">
        <ele>604.89999999999998</ele>
        <time>2017-06-06T12:36:28Z</time>
      </trkpt>
      <trkpt lat="50.273886518552899" lon="6.51567586697638">
        <ele>605.04999999999995</ele>
        <time>2017-06-06T12:36:29Z</time>
      </trkpt>
      <trkpt lat="50.273930355906487" lon="6.515718027949333">
        <ele>605.01999999999998</ele>
        <time>2017-06-06T12:36:30Z</time>
      </trkpt>
      <trkpt lat="50.274222549051046" lon="6.516024386510253">
        <ele>605.13999999999999</ele>
        <time>2017-06-06T12:36:37Z</time>
      </trkpt>
      <trkpt lat="50.274328831583261" lon="6.516107451170683">
        <ele>605.51999999999998</ele>
        <time>2017-06-06T12:36:40Z</time>
      </trkpt>
      <trkpt lat="50.27433754876256" lon="6.516128405928612">
        <ele>605.53999999999996</ele>
        <time>2017-06-06T12:36:41Z</time>
      </trkpt>
      <trkpt lat="50.274599399417639" lon="6.516331667080522">
        <ele>605.35000000000002</ele>
        <time>2017-06-06T12:36:57Z</time>
      </trkpt>
      <trkpt lat="50.274764019995928" lon="6.516545740887523">
        <ele>606.84000000000003</ele>
        <time>2017-06-06T12:37:14Z</time>
      </trkpt>
      <trkpt lat="50.274901147931814" lon="6.516815051436424">
        <ele>607.38999999999999</ele>
        <time>2017-06-06T12:37:33Z</time>
      </trkpt>
      <trkpt lat="50.275075072422624" lon="6.517100287601352">
        <ele>608.86000000000001</ele>
        <time>2017-06-06T12:37:53Z</time>
      </trkpt>
      <trkpt lat="50.275237262248993" lon="6.517315115779638">
        <ele>609.12</ele>
        <time>2017-06-06T12:38:09Z</time>
      </trkpt>
      <trkpt lat="50.275433650240302" lon="6.517428187653422">
        <ele>609.60000000000002</ele>
        <time>2017-06-06T12:38:25Z</time>
      </trkpt>
      <trkpt lat="50.275645293295383" lon="6.517480323091149">
        <ele>609.74000000000001</ele>
        <time>2017-06-06T12:38:41Z</time>
      </trkpt>
      <trkpt lat="50.275813182815909" lon="6.517428355291486">
        <ele>609.42999999999995</ele>
        <time>2017-06-06T12:38:56Z</time>
      </trkpt>
      <trkpt lat="50.275948131456971" lon="6.517356690019369">
        <ele>609.75</ele>
        <time>2017-06-06T12:39:09Z</time>
      </trkpt>
      <trkpt lat="50.276130437850952" lon="6.517199445515871">
        <ele>608.96000000000004</ele>
        <time>2017-06-06T12:39:24Z</time>
      </trkpt>
      <trkpt lat="50.276257256045938" lon="6.517113195732236">
        <ele>607.94000000000005</ele>
        <time>2017-06-06T12:39:36Z</time>
      </trkpt>
      <trkpt lat="50.276357755064964" lon="6.517031723633409">
        <ele>606.64999999999998</ele>
        <time>2017-06-06T12:39:49Z</time>
      </trkpt>
      <trkpt lat="50.276446603238583" lon="6.516969446092844">
        <ele>605.60000000000002</ele>
        <time>2017-06-06T12:39:59Z</time>
      </trkpt>
      <trkpt lat="50.27664240449667" lon="6.516837095841765">
        <ele>604.99000000000001</ele>
        <time>2017-06-06T12:40:16Z</time>
      </trkpt>
      <trkpt lat="50.276681464165449" lon="6.516769034788013">
        <ele>604.36000000000001</ele>
        <time>2017-06-06T12:40:32Z</time>
      </trkpt>
      <trkpt lat="50.276742735877633" lon="6.516761323437095">
        <ele>605</ele>
        <time>2017-06-06T12:40:55Z</time>
      </trkpt>
      <trkpt lat="50.276908278465271" lon="6.516718408092856">
        <ele>603.72000000000003</ele>
        <time>2017-06-06T12:41:11Z</time>
      </trkpt>
      <trkpt lat="50.276921605691314" lon="6.516706505790353">
        <ele>603.70000000000005</ele>
        <time>2017-06-06T12:41:12Z</time>
      </trkpt>
      <trkpt lat="50.276931747794151" lon="6.516697788611054">
        <ele>603.72000000000003</ele>
        <time>2017-06-06T12:41:13Z</time>
      </trkpt>
      <trkpt lat="50.276946416124701" lon="6.516686137765646">
        <ele>603.66999999999996</ele>
        <time>2017-06-06T12:41:14Z</time>
      </trkpt>
      <trkpt lat="50.277093686163425" lon="6.516589410603046">
        <ele>603.66999999999996</ele>
        <time>2017-06-06T12:41:28Z</time>
      </trkpt>
      <trkpt lat="50.277294348925352" lon="6.516491929069161">
        <ele>600.75</ele>
        <time>2017-06-06T12:41:45Z</time>
      </trkpt>
      <trkpt lat="50.277396608144045" lon="6.516408612951636">
        <ele>599.45000000000005</ele>
        <time>2017-06-06T12:41:55Z</time>
      </trkpt>
      <trkpt lat="50.277408845722675" lon="6.516397297382355">
        <ele>599.58000000000004</ele>
        <time>2017-06-06T12:41:56Z</time>
      </trkpt>
      <trkpt lat="50.277418484911323" lon="6.516377180814743">
        <ele>599.63</ele>
        <time>2017-06-06T12:41:57Z</time>
      </trkpt>
      <trkpt lat="50.277480259537697" lon="6.516207447275519">
        <ele>599.61000000000001</ele>
        <time>2017-06-06T12:42:06Z</time>
      </trkpt>
      <trkpt lat="50.27759525924921" lon="6.51605942286551">
        <ele>600.49000000000001</ele>
        <time>2017-06-06T12:42:17Z</time>
      </trkpt>
      <trkpt lat="50.277599785476923" lon="6.516046933829784">
        <ele>600.63</ele>
        <time>2017-06-06T12:42:18Z</time>
      </trkpt>
      <trkpt lat="50.277619818225503" lon="6.516016507521272">
        <ele>601.23000000000002</ele>
        <time>2017-06-06T12:42:21Z</time>
      </trkpt>
      <trkpt lat="50.277733812108636" lon="6.515787681564689">
        <ele>604.11000000000001</ele>
        <time>2017-06-06T12:42:37Z</time>
      </trkpt>
      <trkpt lat="50.277819894254208" lon="6.515583833679557">
        <ele>605.01999999999998</ele>
        <time>2017-06-06T12:42:50Z</time>
      </trkpt>
      <trkpt lat="50.277892146259546" lon="6.515466570854187">
        <ele>606.50999999999999</ele>
        <time>2017-06-06T12:42:59Z</time>
      </trkpt>
      <trkpt lat="50.277955764904618" lon="6.515371268615127">
        <ele>607.59000000000003</ele>
        <time>2017-06-06T12:43:07Z</time>
      </trkpt>
      <trkpt lat="50.277971606701612" lon="6.515363054350019">
        <ele>607.47000000000003</ele>
        <time>2017-06-06T12:43:08Z</time>
      </trkpt>
      <trkpt lat="50.278061628341675" lon="6.515186196193099">
        <ele>607.88999999999999</ele>
        <time>2017-06-06T12:43:19Z</time>
      </trkpt>
      <trkpt lat="50.278082583099604" lon="6.515136994421482">
        <ele>608.73000000000002</ele>
        <time>2017-06-06T12:43:22Z</time>
      </trkpt>
      <trkpt lat="50.278094653040171" lon="6.515123751014471">
        <ele>608.88999999999999</ele>
        <time>2017-06-06T12:43:23Z</time>
      </trkpt>
      <trkpt lat="50.278215603902936" lon="6.515063568949699">
        <ele>608.29999999999995</ele>
        <time>2017-06-06T12:43:35Z</time>
      </trkpt>
      <trkpt lat="50.278362203389406" lon="6.514944126829505">
        <ele>608.45000000000005</ele>
        <time>2017-06-06T12:43:46Z</time>
      </trkpt>
      <trkpt lat="50.278453063219786" lon="6.514887465164065">
        <ele>608.87</ele>
        <time>2017-06-06T12:43:54Z</time>
      </trkpt>
      <trkpt lat="50.278639979660511" lon="6.514694765210152">
        <ele>608.77999999999997</ele>
        <time>2017-06-06T12:44:12Z</time>
      </trkpt>
      <trkpt lat="50.278733773157001" lon="6.51452318765223">
        <ele>607.98000000000002</ele>
        <time>2017-06-06T12:44:24Z</time>
      </trkpt>
      <trkpt lat="50.278750285506248" lon="6.514513464644551">
        <ele>607.97000000000003</ele>
        <time>2017-06-06T12:44:25Z</time>
      </trkpt>
      <trkpt lat="50.278902752324939" lon="6.514393938705325">
        <ele>607.25999999999999</ele>
        <time>2017-06-06T12:44:36Z</time>
      </trkpt>
      <trkpt lat="50.279053039848804" lon="6.514268964529038">
        <ele>606.75</ele>
        <time>2017-06-06T12:44:49Z</time>
      </trkpt>
      <trkpt lat="50.279066115617752" lon="6.514258487150073">
        <ele>606.74000000000001</ele>
        <time>2017-06-06T12:44:50Z</time>
      </trkpt>
      <trkpt lat="50.279078437015414" lon="6.514248428866267">
        <ele>606.59000000000003</ele>
        <time>2017-06-06T12:44:51Z</time>
      </trkpt>
      <trkpt lat="50.279090506955981" lon="6.514244070276618">
        <ele>606.32000000000005</ele>
        <time>2017-06-06T12:44:52Z</time>
      </trkpt>
      <trkpt lat="50.279101654887199" lon="6.51423535309732">
        <ele>606.25999999999999</ele>
        <time>2017-06-06T12:44:53Z</time>
      </trkpt>
      <trkpt lat="50.279113305732608" lon="6.514225043356419">
        <ele>606.30999999999995</ele>
        <time>2017-06-06T12:44:54Z</time>
      </trkpt>
      <trkpt lat="50.279124453663826" lon="6.514214649796486">
        <ele>606.28999999999996</ele>
        <time>2017-06-06T12:44:55Z</time>
      </trkpt>
      <trkpt lat="50.279136942699552" lon="6.514203753322363">
        <ele>606.33000000000004</ele>
        <time>2017-06-06T12:44:56Z</time>
      </trkpt>
      <trkpt lat="50.279147755354643" lon="6.514192605391145">
        <ele>606.26999999999998</ele>
        <time>2017-06-06T12:44:57Z</time>
      </trkpt>
      <trkpt lat="50.279162088409066" lon="6.514184977859259">
        <ele>606.17999999999995</ele>
        <time>2017-06-06T12:44:58Z</time>
      </trkpt>
      <trkpt lat="50.279299300163984" lon="6.51413762010634">
        <ele>606.10000000000002</ele>
        <time>2017-06-06T12:45:09Z</time>
      </trkpt>
      <trkpt lat="50.279477583244443" lon="6.514139967039228">
        <ele>606.88</ele>
        <time>2017-06-06T12:45:22Z</time>
      </trkpt>
      <trkpt lat="50.279676234349608" lon="6.514129405841231">
        <ele>607.24000000000001</ele>
        <time>2017-06-06T12:45:36Z</time>
      </trkpt>
      <trkpt lat="50.279878908768296" lon="6.514134351164103">
        <ele>607.54999999999995</ele>
        <time>2017-06-06T12:45:50Z</time>
      </trkpt>
      <trkpt lat="50.280045121908188" lon="6.514123789966106">
        <ele>607.35000000000002</ele>
        <time>2017-06-06T12:46:03Z</time>
      </trkpt>
      <trkpt lat="50.280277719721198" lon="6.514132674783468">
        <ele>607.86000000000001</ele>
        <time>2017-06-06T12:46:22Z</time>
      </trkpt>
      <trkpt lat="50.280552478507161" lon="6.514097303152084">
        <ele>607.38999999999999</ele>
        <time>2017-06-06T12:46:42Z</time>
      </trkpt>
      <trkpt lat="50.280783986672759" lon="6.51410928927362">
        <ele>607.12</ele>
        <time>2017-06-06T12:46:58Z</time>
      </trkpt>
      <trkpt lat="50.280982386320829" lon="6.514037288725376">
        <ele>606.75999999999999</ele>
        <time>2017-06-06T12:47:13Z</time>
      </trkpt>
      <trkpt lat="50.281003341078758" lon="6.51403502561152">
        <ele>606.61000000000001</ele>
        <time>2017-06-06T12:47:15Z</time>
      </trkpt>
      <trkpt lat="50.281014908105135" lon="6.514035444706678">
        <ele>606.60000000000002</ele>
        <time>2017-06-06T12:47:16Z</time>
      </trkpt>
      <trkpt lat="50.281155472621322" lon="6.513992780819535">
        <ele>606.16999999999996</ele>
        <time>2017-06-06T12:47:27Z</time>
      </trkpt>
      <trkpt lat="50.281282290816307" lon="6.513972748070955">
        <ele>605.78999999999996</ele>
        <time>2017-06-06T12:47:38Z</time>
      </trkpt>
      <trkpt lat="50.281452778726816" lon="6.513950871303678">
        <ele>605.39999999999998</ele>
        <time>2017-06-06T12:47:51Z</time>
      </trkpt>
      <trkpt lat="50.281626367941499" lon="6.513963025063276">
        <ele>604.98000000000002</ele>
        <time>2017-06-06T12:48:04Z</time>
      </trkpt>
      <trkpt lat="50.281767938286066" lon="6.513906866312027">
        <ele>604.72000000000003</ele>
        <time>2017-06-06T12:48:16Z</time>
      </trkpt>
      <trkpt lat="50.281892828643322" lon="6.513890689238906">
        <ele>604.73000000000002</ele>
        <time>2017-06-06T12:48:28Z</time>
      </trkpt>
      <trkpt lat="50.281997853890061" lon="6.513837296515703">
        <ele>604.5</ele>
        <time>2017-06-06T12:48:38Z</time>
      </trkpt>
      <trkpt lat="50.282010175287724" lon="6.513827741146088">
        <ele>604.53999999999996</ele>
        <time>2017-06-06T12:48:39Z</time>
      </trkpt>
      <trkpt lat="50.282215280458331" lon="6.513708215206862">
        <ele>603.75999999999999</ele>
        <time>2017-06-06T12:48:54Z</time>
      </trkpt>
      <trkpt lat="50.282225338742137" lon="6.513704778626561">
        <ele>603.74000000000001</ele>
        <time>2017-06-06T12:48:55Z</time>
      </trkpt>
      <trkpt lat="50.282236989587545" lon="6.513696564361453">
        <ele>603.55999999999995</ele>
        <time>2017-06-06T12:48:56Z</time>
      </trkpt>
      <trkpt lat="50.282250819727778" lon="6.513691451400518">
        <ele>603.48000000000002</ele>
        <time>2017-06-06T12:48:57Z</time>
      </trkpt>
      <trkpt lat="50.282261800020933" lon="6.513680890202522">
        <ele>603.46000000000004</ele>
        <time>2017-06-06T12:48:58Z</time>
      </trkpt>
      <trkpt lat="50.282278060913086" lon="6.513678794726729">
        <ele>603.50999999999999</ele>
        <time>2017-06-06T12:48:59Z</time>
      </trkpt>
      <trkpt lat="50.28229683637619" lon="6.513677788898349">
        <ele>603.69000000000005</ele>
        <time>2017-06-06T12:49:00Z</time>
      </trkpt>
      <trkpt lat="50.282314773648977" lon="6.513670412823558">
        <ele>603.69000000000005</ele>
        <time>2017-06-06T12:49:01Z</time>
      </trkpt>
      <trkpt lat="50.282329861074686" lon="6.51366219855845">
        <ele>603.57000000000005</ele>
        <time>2017-06-06T12:49:02Z</time>
      </trkpt>
      <trkpt lat="50.282474365085363" lon="6.513545941561461">
        <ele>604.05999999999995</ele>
        <time>2017-06-06T12:49:13Z</time>
      </trkpt>
      <trkpt lat="50.282628927379847" lon="6.513463882729411">
        <ele>604.25999999999999</ele>
        <time>2017-06-06T12:49:24Z</time>
      </trkpt>
      <trkpt lat="50.2828333619982" lon="6.513285012915731">
        <ele>605.08000000000004</ele>
        <time>2017-06-06T12:49:36Z</time>
      </trkpt>
      <trkpt lat="50.283190598711371" lon="6.512980498373509">
        <ele>607.74000000000001</ele>
        <time>2017-06-06T12:49:49Z</time>
      </trkpt>
      <trkpt lat="50.283444235101342" lon="6.512811183929443">
        <ele>609.57000000000005</ele>
        <time>2017-06-06T12:49:59Z</time>
      </trkpt>
      <trkpt lat="50.283728633075953" lon="6.51258185505867">
        <ele>611.01999999999998</ele>
        <time>2017-06-06T12:50:10Z</time>
      </trkpt>
      <trkpt lat="50.283893588930368" lon="6.512488480657339">
        <ele>612.5</ele>
        <time>2017-06-06T12:50:21Z</time>
      </trkpt>
      <trkpt lat="50.284073296934366" lon="6.512365099042654">
        <ele>611.84000000000003</ele>
        <time>2017-06-06T12:50:33Z</time>
      </trkpt>
      <trkpt lat="50.284359287470579" lon="6.512158401310444">
        <ele>611.87</ele>
        <time>2017-06-06T12:50:43Z</time>
      </trkpt>
      <trkpt lat="50.285550272092223" lon="6.511409897357225">
        <ele>612.62</ele>
        <time>2017-06-06T12:50:53Z</time>
      </trkpt>
      <trkpt lat="50.28592343442142" lon="6.509851031005383">
        <ele>613.08000000000004</ele>
        <time>2017-06-06T12:51:04Z</time>
      </trkpt>
      <trkpt lat="50.285712294280529" lon="6.511195404455066">
        <ele>613.73000000000002</ele>
        <time>2017-06-06T12:51:23Z</time>
      </trkpt>
      <trkpt lat="50.285715647041798" lon="6.511283917352557">
        <ele>615.14999999999998</ele>
        <time>2017-06-06T12:53:00Z</time>
      </trkpt>
      <trkpt lat="50.285698547959328" lon="6.511348458006978">
        <ele>615.33000000000004</ele>
        <time>2017-06-06T12:53:15Z</time>
      </trkpt>
      <trkpt lat="50.28709220699966" lon="6.512563163414598" />
      <trkpt lat="50.288175232708454" lon="6.514845471829176" />
      <trkpt lat="50.288965394720435" lon="6.519402461126447" />
      <trkpt lat="50.291185844689608" lon="6.516934158280492" />
      <trkpt lat="50.291401091963053" lon="6.51696877554059" />
      <trkpt lat="50.291589349508286" lon="6.517549389973283" />
      <trkpt lat="50.293552475050092" lon="6.519209761172533" />
      <trkpt lat="50.294747399166226" lon="6.520875915884972" />
      <trkpt lat="50.295328348875046" lon="6.521222926676273" />
      <trkpt lat="50.296314060688019" lon="6.521051600575447" />
      <trkpt lat="50.297585092484951" lon="6.519707646220923" />
      <trkpt lat="50.298817064613104" lon="6.519955834373832" />
      <trkpt lat="50.299691548570991" lon="6.521235499531031" />
      <trkpt lat="50.300871217623353" lon="6.52114748954773" />
      <trkpt lat="50.30311731621623" lon="6.524145528674126" />
      <trkpt lat="50.302929896861315" lon="6.525285551324487" />
      <trkpt lat="50.303016230463982" lon="6.525486130267382" />
      <trkpt lat="50.303727518767118" lon="6.525026131421328" />
      <trkpt lat="50.3039132617414" lon="6.525314385071397" />
      <trkpt lat="50.304535366594791" lon="6.52593607082963" />
      <trkpt lat="50.306258015334606" lon="6.52652146294713" />
      <trkpt lat="50.307616889476776" lon="6.526778116822243" />
      <trkpt lat="50.308408560231328" lon="6.527041811496019" />
      <trkpt lat="50.309446575120091" lon="6.528486432507634" />
      <trkpt lat="50.309519749134779" lon="6.528799748048186" />
      <trkpt lat="50.309483706951141" lon="6.529109794646502" />
      <trkpt lat="50.309498626738787" lon="6.529609942808747" />
      <trkpt lat="50.309851923957467" lon="6.529714548960328" />
      <trkpt lat="50.310021657496691" lon="6.528569329530001" />
      <trkpt lat="50.312148565426469" lon="6.52677895501256" />
      <trkpt lat="50.312254009768367" lon="6.526343682780862" />
      <trkpt lat="50.310770999640226" lon="6.522755138576031" />
      <trkpt lat="50.310709057375789" lon="6.521716201677918" />
      <trkpt lat="50.31018971465528" lon="6.521154195070267" />
      <trkpt lat="50.309753771871328" lon="6.519246306270361" />
      <trkpt lat="50.309952171519399" lon="6.516126645728946" />
      <trkpt lat="50.309595605358481" lon="6.516050202772021" />
    </trkseg>
  </trk>

</gpx>